<?xml version="1.0" encoding="UTF-8" standalone="no" ?>
<gpx xmlns="http://www.topografix.com/GPX/1/1" xmlns:xsi="http://www.w3.org/2001/XMLSchema-instance" xsi:schemaLocation="http://www.topografix.com/GPX/1/1 http://www.topografix.com/GPX/1/1/gpx.xsd" version="1.1" creator="VisuGPX - https://www.visugpx.com">
  <metadata>
    <name>83-V-Lorgues</name>
    <desc><![CDATA[83-V-Lorgues : Sauveclare - Pardiguière]]></desc>
  </metadata>
  <trk>
    <name><![CDATA[2018-01-11-V-Lorgues]]></name>
    <trkseg>
      <trkpt lat="43.50065" lon="6.37386">
        <ele>291.3</ele>
        <time>2019-01-11T12:37:59Z</time>
      </trkpt>
      <trkpt lat="43.50065" lon="6.37386">
        <ele>291.3</ele>
        <time>2019-01-11T12:38:00Z</time>
      </trkpt>
      <trkpt lat="43.50068" lon="6.37374">
        <ele>291.1</ele>
        <time>2019-01-11T12:42:43Z</time>
      </trkpt>
      <trkpt lat="43.50075" lon="6.37383">
        <ele>290.7</ele>
        <time>2019-01-11T12:43:14Z</time>
      </trkpt>
      <trkpt lat="43.50083" lon="6.37389">
        <ele>289.6</ele>
        <time>2019-01-11T12:43:29Z</time>
      </trkpt>
      <trkpt lat="43.50092" lon="6.37383">
        <ele>289.8</ele>
        <time>2019-01-11T12:43:39Z</time>
      </trkpt>
      <trkpt lat="43.50095" lon="6.37371">
        <ele>288.9</ele>
        <time>2019-01-11T12:43:46Z</time>
      </trkpt>
      <trkpt lat="43.50101" lon="6.37361">
        <ele>288.7</ele>
        <time>2019-01-11T12:43:54Z</time>
      </trkpt>
      <trkpt lat="43.50104" lon="6.37349">
        <ele>288.2</ele>
        <time>2019-01-11T12:44:01Z</time>
      </trkpt>
      <trkpt lat="43.50107" lon="6.37336">
        <ele>286.7</ele>
        <time>2019-01-11T12:44:09Z</time>
      </trkpt>
      <trkpt lat="43.50116" lon="6.37333">
        <ele>285.5</ele>
        <time>2019-01-11T12:44:22Z</time>
      </trkpt>
      <trkpt lat="43.50121" lon="6.37343">
        <ele>288.3</ele>
        <time>2019-01-11T12:44:45Z</time>
      </trkpt>
      <trkpt lat="43.50131" lon="6.37346">
        <ele>289.7</ele>
        <time>2019-01-11T12:44:52Z</time>
      </trkpt>
      <trkpt lat="43.50136" lon="6.37357">
        <ele>290.9</ele>
        <time>2019-01-11T12:45:00Z</time>
      </trkpt>
      <trkpt lat="43.50142" lon="6.37367">
        <ele>293</ele>
        <time>2019-01-11T12:45:14Z</time>
      </trkpt>
      <trkpt lat="43.50151" lon="6.37372">
        <ele>295.3</ele>
        <time>2019-01-11T12:45:24Z</time>
      </trkpt>
      <trkpt lat="43.50157" lon="6.37381">
        <ele>298</ele>
        <time>2019-01-11T12:45:41Z</time>
      </trkpt>
      <trkpt lat="43.50163" lon="6.3739">
        <ele>300.1</ele>
        <time>2019-01-11T12:45:53Z</time>
      </trkpt>
      <trkpt lat="43.5017" lon="6.374">
        <ele>302.5</ele>
        <time>2019-01-11T12:46:04Z</time>
      </trkpt>
      <trkpt lat="43.50178" lon="6.37407">
        <ele>303.7</ele>
        <time>2019-01-11T12:46:13Z</time>
      </trkpt>
      <trkpt lat="43.50187" lon="6.37412">
        <ele>304.5</ele>
        <time>2019-01-11T12:46:26Z</time>
      </trkpt>
      <trkpt lat="43.50196" lon="6.37418">
        <ele>304.5</ele>
        <time>2019-01-11T12:46:34Z</time>
      </trkpt>
      <trkpt lat="43.50204" lon="6.37424">
        <ele>304.9</ele>
        <time>2019-01-11T12:46:45Z</time>
      </trkpt>
      <trkpt lat="43.50213" lon="6.3743">
        <ele>305.9</ele>
        <time>2019-01-11T12:46:59Z</time>
      </trkpt>
      <trkpt lat="43.50223" lon="6.37433">
        <ele>306</ele>
        <time>2019-01-11T12:47:06Z</time>
      </trkpt>
      <trkpt lat="43.50232" lon="6.37436">
        <ele>307.5</ele>
        <time>2019-01-11T12:47:15Z</time>
      </trkpt>
      <trkpt lat="43.50242" lon="6.37437">
        <ele>308</ele>
        <time>2019-01-11T12:47:22Z</time>
      </trkpt>
      <trkpt lat="43.50253" lon="6.37439">
        <ele>308.7</ele>
        <time>2019-01-11T12:47:29Z</time>
      </trkpt>
      <trkpt lat="43.50263" lon="6.37445">
        <ele>309.2</ele>
        <time>2019-01-11T12:47:33Z</time>
      </trkpt>
      <trkpt lat="43.50271" lon="6.3745">
        <ele>310.5</ele>
        <time>2019-01-11T12:47:44Z</time>
      </trkpt>
      <trkpt lat="43.5028" lon="6.37454">
        <ele>311.5</ele>
        <time>2019-01-11T12:47:52Z</time>
      </trkpt>
      <trkpt lat="43.50289" lon="6.37458">
        <ele>312.4</ele>
        <time>2019-01-11T12:48:00Z</time>
      </trkpt>
      <trkpt lat="43.50298" lon="6.37463">
        <ele>314.8</ele>
        <time>2019-01-11T12:48:11Z</time>
      </trkpt>
      <trkpt lat="43.50308" lon="6.37465">
        <ele>317</ele>
        <time>2019-01-11T12:48:25Z</time>
      </trkpt>
      <trkpt lat="43.50318" lon="6.37467">
        <ele>318.7</ele>
        <time>2019-01-11T12:48:37Z</time>
      </trkpt>
      <trkpt lat="43.50327" lon="6.37472">
        <ele>321</ele>
        <time>2019-01-11T12:48:47Z</time>
      </trkpt>
      <trkpt lat="43.50337" lon="6.37478">
        <ele>322.6</ele>
        <time>2019-01-11T12:48:58Z</time>
      </trkpt>
      <trkpt lat="43.50346" lon="6.37479">
        <ele>324.4</ele>
        <time>2019-01-11T12:49:08Z</time>
      </trkpt>
      <trkpt lat="43.50356" lon="6.37481">
        <ele>325.1</ele>
        <time>2019-01-11T12:49:16Z</time>
      </trkpt>
      <trkpt lat="43.50364" lon="6.37478">
        <ele>326.1</ele>
        <time>2019-01-11T12:49:32Z</time>
      </trkpt>
      <trkpt lat="43.50375" lon="6.37478">
        <ele>326.1</ele>
        <time>2019-01-11T12:51:03Z</time>
      </trkpt>
      <trkpt lat="43.50382" lon="6.37487">
        <ele>327.6</ele>
        <time>2019-01-11T12:51:21Z</time>
      </trkpt>
      <trkpt lat="43.50391" lon="6.37493">
        <ele>327.3</ele>
        <time>2019-01-11T12:51:52Z</time>
      </trkpt>
      <trkpt lat="43.50402" lon="6.37496">
        <ele>328.5</ele>
        <time>2019-01-11T12:52:06Z</time>
      </trkpt>
      <trkpt lat="43.50411" lon="6.37496">
        <ele>328.9</ele>
        <time>2019-01-11T12:52:26Z</time>
      </trkpt>
      <trkpt lat="43.5042" lon="6.37498">
        <ele>329.6</ele>
        <time>2019-01-11T12:52:35Z</time>
      </trkpt>
      <trkpt lat="43.50429" lon="6.37502">
        <ele>329.7</ele>
        <time>2019-01-11T12:52:48Z</time>
      </trkpt>
      <trkpt lat="43.50439" lon="6.37503">
        <ele>330.6</ele>
        <time>2019-01-11T12:52:59Z</time>
      </trkpt>
      <trkpt lat="43.50448" lon="6.37507">
        <ele>331.2</ele>
        <time>2019-01-11T12:53:07Z</time>
      </trkpt>
      <trkpt lat="43.50457" lon="6.37509">
        <ele>331.7</ele>
        <time>2019-01-11T12:53:17Z</time>
      </trkpt>
      <trkpt lat="43.50466" lon="6.37512">
        <ele>332.1</ele>
        <time>2019-01-11T12:53:29Z</time>
      </trkpt>
      <trkpt lat="43.50475" lon="6.37514">
        <ele>332.2</ele>
        <time>2019-01-11T12:53:37Z</time>
      </trkpt>
      <trkpt lat="43.50485" lon="6.37515">
        <ele>332.4</ele>
        <time>2019-01-11T12:53:49Z</time>
      </trkpt>
      <trkpt lat="43.50495" lon="6.37516">
        <ele>332.5</ele>
        <time>2019-01-11T12:53:58Z</time>
      </trkpt>
      <trkpt lat="43.50504" lon="6.37519">
        <ele>332.4</ele>
        <time>2019-01-11T12:54:10Z</time>
      </trkpt>
      <trkpt lat="43.50513" lon="6.37518">
        <ele>332.1</ele>
        <time>2019-01-11T12:54:19Z</time>
      </trkpt>
      <trkpt lat="43.50525" lon="6.37518">
        <ele>332</ele>
        <time>2019-01-11T12:54:27Z</time>
      </trkpt>
      <trkpt lat="43.50534" lon="6.37515">
        <ele>331.6</ele>
        <time>2019-01-11T12:54:35Z</time>
      </trkpt>
      <trkpt lat="43.50544" lon="6.37513">
        <ele>331.3</ele>
        <time>2019-01-11T12:54:44Z</time>
      </trkpt>
      <trkpt lat="43.50553" lon="6.3751">
        <ele>330.4</ele>
        <time>2019-01-11T12:54:53Z</time>
      </trkpt>
      <trkpt lat="43.50563" lon="6.37511">
        <ele>330.3</ele>
        <time>2019-01-11T12:55:06Z</time>
      </trkpt>
      <trkpt lat="43.50573" lon="6.3751">
        <ele>330.2</ele>
        <time>2019-01-11T12:55:15Z</time>
      </trkpt>
      <trkpt lat="43.50582" lon="6.37505">
        <ele>329.6</ele>
        <time>2019-01-11T12:55:25Z</time>
      </trkpt>
      <trkpt lat="43.50591" lon="6.37501">
        <ele>329.5</ele>
        <time>2019-01-11T12:55:31Z</time>
      </trkpt>
      <trkpt lat="43.506" lon="6.37503">
        <ele>329.6</ele>
        <time>2019-01-11T12:55:42Z</time>
      </trkpt>
      <trkpt lat="43.5061" lon="6.37501">
        <ele>328.4</ele>
        <time>2019-01-11T12:55:50Z</time>
      </trkpt>
      <trkpt lat="43.5062" lon="6.37501">
        <ele>327</ele>
        <time>2019-01-11T12:56:01Z</time>
      </trkpt>
      <trkpt lat="43.50627" lon="6.37494">
        <ele>325.9</ele>
        <time>2019-01-11T12:56:09Z</time>
      </trkpt>
      <trkpt lat="43.50636" lon="6.37488">
        <ele>324.6</ele>
        <time>2019-01-11T12:56:18Z</time>
      </trkpt>
      <trkpt lat="43.50645" lon="6.37486">
        <ele>323.3</ele>
        <time>2019-01-11T12:56:33Z</time>
      </trkpt>
      <trkpt lat="43.50654" lon="6.3748">
        <ele>320.4</ele>
        <time>2019-01-11T12:56:50Z</time>
      </trkpt>
      <trkpt lat="43.50663" lon="6.37475">
        <ele>318.8</ele>
        <time>2019-01-11T12:57:02Z</time>
      </trkpt>
      <trkpt lat="43.50671" lon="6.37471">
        <ele>316.7</ele>
        <time>2019-01-11T12:57:16Z</time>
      </trkpt>
      <trkpt lat="43.50678" lon="6.37464">
        <ele>314.6</ele>
        <time>2019-01-11T12:57:25Z</time>
      </trkpt>
      <trkpt lat="43.50688" lon="6.3746">
        <ele>313.6</ele>
        <time>2019-01-11T12:57:36Z</time>
      </trkpt>
      <trkpt lat="43.50697" lon="6.37459">
        <ele>310.9</ele>
        <time>2019-01-11T12:57:51Z</time>
      </trkpt>
      <trkpt lat="43.50706" lon="6.37452">
        <ele>309.5</ele>
        <time>2019-01-11T12:58:01Z</time>
      </trkpt>
      <trkpt lat="43.50715" lon="6.37448">
        <ele>307.9</ele>
        <time>2019-01-11T12:58:12Z</time>
      </trkpt>
      <trkpt lat="43.50725" lon="6.37445">
        <ele>306.3</ele>
        <time>2019-01-11T12:58:22Z</time>
      </trkpt>
      <trkpt lat="43.50734" lon="6.37442">
        <ele>305.1</ele>
        <time>2019-01-11T12:58:32Z</time>
      </trkpt>
      <trkpt lat="43.50742" lon="6.37437">
        <ele>303.8</ele>
        <time>2019-01-11T12:58:43Z</time>
      </trkpt>
      <trkpt lat="43.50751" lon="6.3744">
        <ele>301.1</ele>
        <time>2019-01-11T12:59:53Z</time>
      </trkpt>
      <trkpt lat="43.50754" lon="6.37453">
        <ele>301</ele>
        <time>2019-01-11T13:00:09Z</time>
      </trkpt>
      <trkpt lat="43.50761" lon="6.37463">
        <ele>300.8</ele>
        <time>2019-01-11T13:00:20Z</time>
      </trkpt>
      <trkpt lat="43.50765" lon="6.37474">
        <ele>301</ele>
        <time>2019-01-11T13:00:31Z</time>
      </trkpt>
      <trkpt lat="43.50769" lon="6.37486">
        <ele>300.8</ele>
        <time>2019-01-11T13:00:41Z</time>
      </trkpt>
      <trkpt lat="43.5077" lon="6.37499">
        <ele>300.9</ele>
        <time>2019-01-11T13:00:51Z</time>
      </trkpt>
      <trkpt lat="43.50774" lon="6.37511">
        <ele>300.3</ele>
        <time>2019-01-11T13:00:59Z</time>
      </trkpt>
      <trkpt lat="43.50777" lon="6.37523">
        <ele>299.3</ele>
        <time>2019-01-11T13:01:07Z</time>
      </trkpt>
      <trkpt lat="43.5078" lon="6.37535">
        <ele>297.7</ele>
        <time>2019-01-11T13:01:19Z</time>
      </trkpt>
      <trkpt lat="43.50789" lon="6.37538">
        <ele>297.5</ele>
        <time>2019-01-11T13:01:37Z</time>
      </trkpt>
      <trkpt lat="43.508" lon="6.37538">
        <ele>297.2</ele>
        <time>2019-01-11T13:01:44Z</time>
      </trkpt>
      <trkpt lat="43.50809" lon="6.3754">
        <ele>296.5</ele>
        <time>2019-01-11T13:01:55Z</time>
      </trkpt>
      <trkpt lat="43.50819" lon="6.37538">
        <ele>296</ele>
        <time>2019-01-11T13:02:04Z</time>
      </trkpt>
      <trkpt lat="43.50827" lon="6.37532">
        <ele>294.7</ele>
        <time>2019-01-11T13:02:14Z</time>
      </trkpt>
      <trkpt lat="43.50835" lon="6.37527">
        <ele>294.2</ele>
        <time>2019-01-11T13:02:25Z</time>
      </trkpt>
      <trkpt lat="43.50845" lon="6.37526">
        <ele>294.2</ele>
        <time>2019-01-11T13:02:34Z</time>
      </trkpt>
      <trkpt lat="43.50854" lon="6.37531">
        <ele>293.8</ele>
        <time>2019-01-11T13:02:47Z</time>
      </trkpt>
      <trkpt lat="43.50861" lon="6.37541">
        <ele>294.1</ele>
        <time>2019-01-11T13:02:57Z</time>
      </trkpt>
      <trkpt lat="43.50868" lon="6.37549">
        <ele>294</ele>
        <time>2019-01-11T13:03:10Z</time>
      </trkpt>
      <trkpt lat="43.50875" lon="6.37559">
        <ele>293.5</ele>
        <time>2019-01-11T13:03:22Z</time>
      </trkpt>
      <trkpt lat="43.50882" lon="6.37568">
        <ele>292.6</ele>
        <time>2019-01-11T13:03:30Z</time>
      </trkpt>
      <trkpt lat="43.50888" lon="6.37576">
        <ele>291.6</ele>
        <time>2019-01-11T13:03:40Z</time>
      </trkpt>
      <trkpt lat="43.5089" lon="6.37589">
        <ele>290.8</ele>
        <time>2019-01-11T13:03:48Z</time>
      </trkpt>
      <trkpt lat="43.50897" lon="6.37599">
        <ele>290.1</ele>
        <time>2019-01-11T13:03:55Z</time>
      </trkpt>
      <trkpt lat="43.50906" lon="6.376">
        <ele>288.4</ele>
        <time>2019-01-11T13:04:05Z</time>
      </trkpt>
      <trkpt lat="43.50915" lon="6.37602">
        <ele>287.1</ele>
        <time>2019-01-11T13:04:14Z</time>
      </trkpt>
      <trkpt lat="43.5092" lon="6.37614">
        <ele>285.7</ele>
        <time>2019-01-11T13:04:23Z</time>
      </trkpt>
      <trkpt lat="43.50926" lon="6.37624">
        <ele>284.4</ele>
        <time>2019-01-11T13:04:33Z</time>
      </trkpt>
      <trkpt lat="43.50933" lon="6.37634">
        <ele>283.9</ele>
        <time>2019-01-11T13:04:44Z</time>
      </trkpt>
      <trkpt lat="43.50941" lon="6.37643">
        <ele>281.7</ele>
        <time>2019-01-11T13:04:52Z</time>
      </trkpt>
      <trkpt lat="43.50946" lon="6.37654">
        <ele>281.3</ele>
        <time>2019-01-11T13:05:00Z</time>
      </trkpt>
      <trkpt lat="43.50955" lon="6.37663">
        <ele>278.1</ele>
        <time>2019-01-11T13:05:13Z</time>
      </trkpt>
      <trkpt lat="43.50963" lon="6.3767">
        <ele>277.6</ele>
        <time>2019-01-11T13:05:22Z</time>
      </trkpt>
      <trkpt lat="43.50969" lon="6.37679">
        <ele>277.1</ele>
        <time>2019-01-11T13:05:33Z</time>
      </trkpt>
      <trkpt lat="43.50972" lon="6.37692">
        <ele>277</ele>
        <time>2019-01-11T13:05:42Z</time>
      </trkpt>
      <trkpt lat="43.50978" lon="6.37703">
        <ele>276.3</ele>
        <time>2019-01-11T13:05:49Z</time>
      </trkpt>
      <trkpt lat="43.50984" lon="6.37711">
        <ele>276.3</ele>
        <time>2019-01-11T13:05:56Z</time>
      </trkpt>
      <trkpt lat="43.5099" lon="6.37721">
        <ele>275.1</ele>
        <time>2019-01-11T13:06:07Z</time>
      </trkpt>
      <trkpt lat="43.50996" lon="6.37731">
        <ele>274.9</ele>
        <time>2019-01-11T13:06:17Z</time>
      </trkpt>
      <trkpt lat="43.50999" lon="6.37744">
        <ele>274.2</ele>
        <time>2019-01-11T13:06:25Z</time>
      </trkpt>
      <trkpt lat="43.51006" lon="6.37755">
        <ele>273.8</ele>
        <time>2019-01-11T13:06:34Z</time>
      </trkpt>
      <trkpt lat="43.51005" lon="6.37767">
        <ele>273.2</ele>
        <time>2019-01-11T13:06:42Z</time>
      </trkpt>
      <trkpt lat="43.51006" lon="6.3778">
        <ele>272.5</ele>
        <time>2019-01-11T13:06:56Z</time>
      </trkpt>
      <trkpt lat="43.51008" lon="6.37795">
        <ele>270.6</ele>
        <time>2019-01-11T13:07:05Z</time>
      </trkpt>
      <trkpt lat="43.5101" lon="6.37808">
        <ele>270.4</ele>
        <time>2019-01-11T13:07:15Z</time>
      </trkpt>
      <trkpt lat="43.51013" lon="6.37819">
        <ele>270.3</ele>
        <time>2019-01-11T13:07:21Z</time>
      </trkpt>
      <trkpt lat="43.51016" lon="6.37831">
        <ele>268.7</ele>
        <time>2019-01-11T13:07:32Z</time>
      </trkpt>
      <trkpt lat="43.51018" lon="6.37844">
        <ele>267.2</ele>
        <time>2019-01-11T13:07:49Z</time>
      </trkpt>
      <trkpt lat="43.51014" lon="6.37856">
        <ele>265.5</ele>
        <time>2019-01-11T13:07:59Z</time>
      </trkpt>
      <trkpt lat="43.51013" lon="6.37869">
        <ele>263.8</ele>
        <time>2019-01-11T13:08:10Z</time>
      </trkpt>
      <trkpt lat="43.51012" lon="6.37881">
        <ele>263.1</ele>
        <time>2019-01-11T13:08:18Z</time>
      </trkpt>
      <trkpt lat="43.51011" lon="6.37894">
        <ele>261.5</ele>
        <time>2019-01-11T13:08:27Z</time>
      </trkpt>
      <trkpt lat="43.51008" lon="6.37906">
        <ele>259.8</ele>
        <time>2019-01-11T13:08:41Z</time>
      </trkpt>
      <trkpt lat="43.51007" lon="6.37919">
        <ele>259.1</ele>
        <time>2019-01-11T13:08:48Z</time>
      </trkpt>
      <trkpt lat="43.51005" lon="6.37931">
        <ele>257.7</ele>
        <time>2019-01-11T13:08:56Z</time>
      </trkpt>
      <trkpt lat="43.51003" lon="6.37945">
        <ele>256.6</ele>
        <time>2019-01-11T13:09:04Z</time>
      </trkpt>
      <trkpt lat="43.50997" lon="6.37956">
        <ele>255.7</ele>
        <time>2019-01-11T13:09:14Z</time>
      </trkpt>
      <trkpt lat="43.5099" lon="6.37964">
        <ele>255.1</ele>
        <time>2019-01-11T13:09:29Z</time>
      </trkpt>
      <trkpt lat="43.50981" lon="6.37968">
        <ele>255.2</ele>
        <time>2019-01-11T13:09:44Z</time>
      </trkpt>
      <trkpt lat="43.5099" lon="6.37965">
        <ele>255.3</ele>
        <time>2019-01-11T13:10:29Z</time>
      </trkpt>
      <trkpt lat="43.5099" lon="6.37978">
        <ele>254.2</ele>
        <time>2019-01-11T13:12:17Z</time>
      </trkpt>
      <trkpt lat="43.50995" lon="6.37991">
        <ele>252</ele>
        <time>2019-01-11T13:12:31Z</time>
      </trkpt>
      <trkpt lat="43.51003" lon="6.37997">
        <ele>252.5</ele>
        <time>2019-01-11T13:12:38Z</time>
      </trkpt>
      <trkpt lat="43.51012" lon="6.38001">
        <ele>251.7</ele>
        <time>2019-01-11T13:12:58Z</time>
      </trkpt>
      <trkpt lat="43.51022" lon="6.38004">
        <ele>251.3</ele>
        <time>2019-01-11T13:13:08Z</time>
      </trkpt>
      <trkpt lat="43.51029" lon="6.38012">
        <ele>250.5</ele>
        <time>2019-01-11T13:13:23Z</time>
      </trkpt>
      <trkpt lat="43.51038" lon="6.3801">
        <ele>250.4</ele>
        <time>2019-01-11T13:13:32Z</time>
      </trkpt>
      <trkpt lat="43.51048" lon="6.3801">
        <ele>249.9</ele>
        <time>2019-01-11T13:13:42Z</time>
      </trkpt>
      <trkpt lat="43.51057" lon="6.38014">
        <ele>249.3</ele>
        <time>2019-01-11T13:13:51Z</time>
      </trkpt>
      <trkpt lat="43.51067" lon="6.38017">
        <ele>248.5</ele>
        <time>2019-01-11T13:14:04Z</time>
      </trkpt>
      <trkpt lat="43.51076" lon="6.38018">
        <ele>247.4</ele>
        <time>2019-01-11T13:14:14Z</time>
      </trkpt>
      <trkpt lat="43.51085" lon="6.38018">
        <ele>245.5</ele>
        <time>2019-01-11T13:14:30Z</time>
      </trkpt>
      <trkpt lat="43.51095" lon="6.38023">
        <ele>244.1</ele>
        <time>2019-01-11T13:14:46Z</time>
      </trkpt>
      <trkpt lat="43.51104" lon="6.38025">
        <ele>242.3</ele>
        <time>2019-01-11T13:15:01Z</time>
      </trkpt>
      <trkpt lat="43.51113" lon="6.38019">
        <ele>241.4</ele>
        <time>2019-01-11T13:15:11Z</time>
      </trkpt>
      <trkpt lat="43.51122" lon="6.38014">
        <ele>240.9</ele>
        <time>2019-01-11T13:15:21Z</time>
      </trkpt>
      <trkpt lat="43.51126" lon="6.38003">
        <ele>240.8</ele>
        <time>2019-01-11T13:15:32Z</time>
      </trkpt>
      <trkpt lat="43.51134" lon="6.37996">
        <ele>239.5</ele>
        <time>2019-01-11T13:15:41Z</time>
      </trkpt>
      <trkpt lat="43.51143" lon="6.3799">
        <ele>239.1</ele>
        <time>2019-01-11T13:15:52Z</time>
      </trkpt>
      <trkpt lat="43.51151" lon="6.37984">
        <ele>238.5</ele>
        <time>2019-01-11T13:16:01Z</time>
      </trkpt>
      <trkpt lat="43.51156" lon="6.37974">
        <ele>237.6</ele>
        <time>2019-01-11T13:16:14Z</time>
      </trkpt>
      <trkpt lat="43.51162" lon="6.37963">
        <ele>237.3</ele>
        <time>2019-01-11T13:16:25Z</time>
      </trkpt>
      <trkpt lat="43.51167" lon="6.37953">
        <ele>236.3</ele>
        <time>2019-01-11T13:16:35Z</time>
      </trkpt>
      <trkpt lat="43.51171" lon="6.37941">
        <ele>234.7</ele>
        <time>2019-01-11T13:16:46Z</time>
      </trkpt>
      <trkpt lat="43.51174" lon="6.3793">
        <ele>234.2</ele>
        <time>2019-01-11T13:16:54Z</time>
      </trkpt>
      <trkpt lat="43.51179" lon="6.37919">
        <ele>232.9</ele>
        <time>2019-01-11T13:17:05Z</time>
      </trkpt>
      <trkpt lat="43.51183" lon="6.37932">
        <ele>231</ele>
        <time>2019-01-11T13:17:50Z</time>
      </trkpt>
      <trkpt lat="43.51192" lon="6.37937">
        <ele>230.8</ele>
        <time>2019-01-11T13:18:12Z</time>
      </trkpt>
      <trkpt lat="43.51199" lon="6.37929">
        <ele>230.2</ele>
        <time>2019-01-11T13:18:55Z</time>
      </trkpt>
      <trkpt lat="43.51204" lon="6.3794">
        <ele>230.3</ele>
        <time>2019-01-11T13:20:07Z</time>
      </trkpt>
      <trkpt lat="43.51212" lon="6.37931">
        <ele>230.8</ele>
        <time>2019-01-11T13:20:26Z</time>
      </trkpt>
      <trkpt lat="43.5122" lon="6.37924">
        <ele>229.7</ele>
        <time>2019-01-11T13:20:38Z</time>
      </trkpt>
      <trkpt lat="43.51229" lon="6.37918">
        <ele>229.3</ele>
        <time>2019-01-11T13:20:48Z</time>
      </trkpt>
      <trkpt lat="43.51234" lon="6.37908">
        <ele>228.8</ele>
        <time>2019-01-11T13:20:56Z</time>
      </trkpt>
      <trkpt lat="43.51244" lon="6.37903">
        <ele>228.4</ele>
        <time>2019-01-11T13:21:08Z</time>
      </trkpt>
      <trkpt lat="43.51254" lon="6.37894">
        <ele>228</ele>
        <time>2019-01-11T13:21:19Z</time>
      </trkpt>
      <trkpt lat="43.51259" lon="6.37884">
        <ele>228.3</ele>
        <time>2019-01-11T13:21:27Z</time>
      </trkpt>
      <trkpt lat="43.51267" lon="6.37879">
        <ele>228.1</ele>
        <time>2019-01-11T13:21:35Z</time>
      </trkpt>
      <trkpt lat="43.51275" lon="6.37872">
        <ele>227.2</ele>
        <time>2019-01-11T13:21:46Z</time>
      </trkpt>
      <trkpt lat="43.51284" lon="6.37872">
        <ele>226.7</ele>
        <time>2019-01-11T13:21:56Z</time>
      </trkpt>
      <trkpt lat="43.51293" lon="6.37866">
        <ele>226.1</ele>
        <time>2019-01-11T13:22:07Z</time>
      </trkpt>
      <trkpt lat="43.51302" lon="6.37863">
        <ele>226.1</ele>
        <time>2019-01-11T13:22:20Z</time>
      </trkpt>
      <trkpt lat="43.5131" lon="6.37858">
        <ele>225.4</ele>
        <time>2019-01-11T13:22:33Z</time>
      </trkpt>
      <trkpt lat="43.5132" lon="6.37854">
        <ele>225.5</ele>
        <time>2019-01-11T13:22:43Z</time>
      </trkpt>
      <trkpt lat="43.51329" lon="6.37848">
        <ele>224.5</ele>
        <time>2019-01-11T13:22:49Z</time>
      </trkpt>
      <trkpt lat="43.51339" lon="6.37846">
        <ele>224.9</ele>
        <time>2019-01-11T13:22:57Z</time>
      </trkpt>
      <trkpt lat="43.51348" lon="6.37843">
        <ele>224.6</ele>
        <time>2019-01-11T13:23:05Z</time>
      </trkpt>
      <trkpt lat="43.51359" lon="6.37843">
        <ele>224.6</ele>
        <time>2019-01-11T13:23:16Z</time>
      </trkpt>
      <trkpt lat="43.51368" lon="6.37844">
        <ele>224</ele>
        <time>2019-01-11T13:23:29Z</time>
      </trkpt>
      <trkpt lat="43.51378" lon="6.37841">
        <ele>223.8</ele>
        <time>2019-01-11T13:23:36Z</time>
      </trkpt>
      <trkpt lat="43.51388" lon="6.37842">
        <ele>223.9</ele>
        <time>2019-01-11T13:23:44Z</time>
      </trkpt>
      <trkpt lat="43.51397" lon="6.3784">
        <ele>223.7</ele>
        <time>2019-01-11T13:23:53Z</time>
      </trkpt>
      <trkpt lat="43.51407" lon="6.37841">
        <ele>222.8</ele>
        <time>2019-01-11T13:24:02Z</time>
      </trkpt>
      <trkpt lat="43.51415" lon="6.3785">
        <ele>222.6</ele>
        <time>2019-01-11T13:24:13Z</time>
      </trkpt>
      <trkpt lat="43.51424" lon="6.37854">
        <ele>222.4</ele>
        <time>2019-01-11T13:24:20Z</time>
      </trkpt>
      <trkpt lat="43.51433" lon="6.37857">
        <ele>222.4</ele>
        <time>2019-01-11T13:24:28Z</time>
      </trkpt>
      <trkpt lat="43.51442" lon="6.37864">
        <ele>222.5</ele>
        <time>2019-01-11T13:24:36Z</time>
      </trkpt>
      <trkpt lat="43.5145" lon="6.37871">
        <ele>222.3</ele>
        <time>2019-01-11T13:24:46Z</time>
      </trkpt>
      <trkpt lat="43.51457" lon="6.3788">
        <ele>222</ele>
        <time>2019-01-11T13:24:57Z</time>
      </trkpt>
      <trkpt lat="43.51467" lon="6.37889">
        <ele>222.2</ele>
        <time>2019-01-11T13:25:05Z</time>
      </trkpt>
      <trkpt lat="43.51474" lon="6.37898">
        <ele>222.5</ele>
        <time>2019-01-11T13:25:12Z</time>
      </trkpt>
      <trkpt lat="43.51482" lon="6.37905">
        <ele>222.2</ele>
        <time>2019-01-11T13:25:19Z</time>
      </trkpt>
      <trkpt lat="43.51489" lon="6.37913">
        <ele>222.2</ele>
        <time>2019-01-11T13:25:27Z</time>
      </trkpt>
      <trkpt lat="43.51498" lon="6.37917">
        <ele>222.4</ele>
        <time>2019-01-11T13:25:52Z</time>
      </trkpt>
      <trkpt lat="43.51502" lon="6.37929">
        <ele>222</ele>
        <time>2019-01-11T13:27:00Z</time>
      </trkpt>
      <trkpt lat="43.51511" lon="6.37924">
        <ele>224.2</ele>
        <time>2019-01-11T13:27:34Z</time>
      </trkpt>
      <trkpt lat="43.51518" lon="6.37916">
        <ele>225.1</ele>
        <time>2019-01-11T13:27:42Z</time>
      </trkpt>
      <trkpt lat="43.51525" lon="6.37907">
        <ele>225.8</ele>
        <time>2019-01-11T13:27:52Z</time>
      </trkpt>
      <trkpt lat="43.51532" lon="6.37898">
        <ele>226.7</ele>
        <time>2019-01-11T13:28:09Z</time>
      </trkpt>
      <trkpt lat="43.51541" lon="6.37891">
        <ele>227.4</ele>
        <time>2019-01-11T13:28:21Z</time>
      </trkpt>
      <trkpt lat="43.5155" lon="6.37886">
        <ele>228.8</ele>
        <time>2019-01-11T13:28:34Z</time>
      </trkpt>
      <trkpt lat="43.51557" lon="6.37879">
        <ele>230.5</ele>
        <time>2019-01-11T13:28:55Z</time>
      </trkpt>
      <trkpt lat="43.51566" lon="6.37873">
        <ele>230.9</ele>
        <time>2019-01-11T13:29:05Z</time>
      </trkpt>
      <trkpt lat="43.51572" lon="6.37862">
        <ele>230.7</ele>
        <time>2019-01-11T13:29:11Z</time>
      </trkpt>
      <trkpt lat="43.51573" lon="6.37847">
        <ele>230.4</ele>
        <time>2019-01-11T13:29:24Z</time>
      </trkpt>
      <trkpt lat="43.5158" lon="6.37836">
        <ele>230.3</ele>
        <time>2019-01-11T13:29:33Z</time>
      </trkpt>
      <trkpt lat="43.51585" lon="6.37826">
        <ele>230</ele>
        <time>2019-01-11T13:29:41Z</time>
      </trkpt>
      <trkpt lat="43.5159" lon="6.37815">
        <ele>229.7</ele>
        <time>2019-01-11T13:29:49Z</time>
      </trkpt>
      <trkpt lat="43.51597" lon="6.37806">
        <ele>229.5</ele>
        <time>2019-01-11T13:29:59Z</time>
      </trkpt>
      <trkpt lat="43.51602" lon="6.37795">
        <ele>229.2</ele>
        <time>2019-01-11T13:30:07Z</time>
      </trkpt>
      <trkpt lat="43.51607" lon="6.37782">
        <ele>228</ele>
        <time>2019-01-11T13:30:15Z</time>
      </trkpt>
      <trkpt lat="43.51612" lon="6.37771">
        <ele>229.2</ele>
        <time>2019-01-11T13:30:23Z</time>
      </trkpt>
      <trkpt lat="43.51615" lon="6.37755">
        <ele>229.3</ele>
        <time>2019-01-11T13:30:34Z</time>
      </trkpt>
      <trkpt lat="43.51618" lon="6.37741">
        <ele>229</ele>
        <time>2019-01-11T13:30:45Z</time>
      </trkpt>
      <trkpt lat="43.51621" lon="6.37725">
        <ele>229</ele>
        <time>2019-01-11T13:30:57Z</time>
      </trkpt>
      <trkpt lat="43.51623" lon="6.37711">
        <ele>229.9</ele>
        <time>2019-01-11T13:31:13Z</time>
      </trkpt>
      <trkpt lat="43.51625" lon="6.37698">
        <ele>230.3</ele>
        <time>2019-01-11T13:31:22Z</time>
      </trkpt>
      <trkpt lat="43.51627" lon="6.37686">
        <ele>231</ele>
        <time>2019-01-11T13:31:31Z</time>
      </trkpt>
      <trkpt lat="43.51628" lon="6.37674">
        <ele>230</ele>
        <time>2019-01-11T13:31:44Z</time>
      </trkpt>
      <trkpt lat="43.51631" lon="6.37661">
        <ele>231.5</ele>
        <time>2019-01-11T13:31:53Z</time>
      </trkpt>
      <trkpt lat="43.51635" lon="6.37649">
        <ele>231</ele>
        <time>2019-01-11T13:32:01Z</time>
      </trkpt>
      <trkpt lat="43.51637" lon="6.37636">
        <ele>232</ele>
        <time>2019-01-11T13:32:14Z</time>
      </trkpt>
      <trkpt lat="43.51644" lon="6.37627">
        <ele>232.4</ele>
        <time>2019-01-11T13:32:23Z</time>
      </trkpt>
      <trkpt lat="43.51648" lon="6.37615">
        <ele>232.6</ele>
        <time>2019-01-11T13:32:30Z</time>
      </trkpt>
      <trkpt lat="43.51652" lon="6.37602">
        <ele>232.8</ele>
        <time>2019-01-11T13:32:39Z</time>
      </trkpt>
      <trkpt lat="43.51655" lon="6.37589">
        <ele>232.8</ele>
        <time>2019-01-11T13:32:52Z</time>
      </trkpt>
      <trkpt lat="43.51661" lon="6.37579">
        <ele>233.3</ele>
        <time>2019-01-11T13:32:59Z</time>
      </trkpt>
      <trkpt lat="43.51669" lon="6.37571">
        <ele>234.1</ele>
        <time>2019-01-11T13:33:08Z</time>
      </trkpt>
      <trkpt lat="43.51677" lon="6.37562">
        <ele>234.3</ele>
        <time>2019-01-11T13:33:19Z</time>
      </trkpt>
      <trkpt lat="43.51684" lon="6.37554">
        <ele>235</ele>
        <time>2019-01-11T13:33:28Z</time>
      </trkpt>
      <trkpt lat="43.51688" lon="6.37542">
        <ele>235.6</ele>
        <time>2019-01-11T13:33:34Z</time>
      </trkpt>
      <trkpt lat="43.51692" lon="6.37529">
        <ele>235.7</ele>
        <time>2019-01-11T13:33:43Z</time>
      </trkpt>
      <trkpt lat="43.51695" lon="6.37517">
        <ele>236</ele>
        <time>2019-01-11T13:33:51Z</time>
      </trkpt>
      <trkpt lat="43.51701" lon="6.37504">
        <ele>236.1</ele>
        <time>2019-01-11T13:34:00Z</time>
      </trkpt>
      <trkpt lat="43.51706" lon="6.37493">
        <ele>235.7</ele>
        <time>2019-01-11T13:34:08Z</time>
      </trkpt>
      <trkpt lat="43.5171" lon="6.37481">
        <ele>236.1</ele>
        <time>2019-01-11T13:34:17Z</time>
      </trkpt>
      <trkpt lat="43.51712" lon="6.37468">
        <ele>236.8</ele>
        <time>2019-01-11T13:34:26Z</time>
      </trkpt>
      <trkpt lat="43.51708" lon="6.37455">
        <ele>237</ele>
        <time>2019-01-11T13:34:43Z</time>
      </trkpt>
      <trkpt lat="43.5171" lon="6.37442">
        <ele>237</ele>
        <time>2019-01-11T13:34:54Z</time>
      </trkpt>
      <trkpt lat="43.51714" lon="6.37429">
        <ele>236</ele>
        <time>2019-01-11T13:35:02Z</time>
      </trkpt>
      <trkpt lat="43.51714" lon="6.37416">
        <ele>236.6</ele>
        <time>2019-01-11T13:35:17Z</time>
      </trkpt>
      <trkpt lat="43.51721" lon="6.3741">
        <ele>236.2</ele>
        <time>2019-01-11T13:35:28Z</time>
      </trkpt>
      <trkpt lat="43.51731" lon="6.37395">
        <ele>236</ele>
        <time>2019-01-11T13:35:38Z</time>
      </trkpt>
      <trkpt lat="43.51739" lon="6.37388">
        <ele>235.8</ele>
        <time>2019-01-11T13:35:51Z</time>
      </trkpt>
      <trkpt lat="43.51745" lon="6.37376">
        <ele>236.2</ele>
        <time>2019-01-11T13:36:05Z</time>
      </trkpt>
      <trkpt lat="43.51751" lon="6.37366">
        <ele>235.7</ele>
        <time>2019-01-11T13:36:14Z</time>
      </trkpt>
      <trkpt lat="43.5175" lon="6.37353">
        <ele>236.2</ele>
        <time>2019-01-11T13:36:42Z</time>
      </trkpt>
      <trkpt lat="43.51748" lon="6.37341">
        <ele>236.1</ele>
        <time>2019-01-11T13:38:36Z</time>
      </trkpt>
      <trkpt lat="43.51752" lon="6.3733">
        <ele>236.6</ele>
        <time>2019-01-11T13:41:33Z</time>
      </trkpt>
      <trkpt lat="43.51761" lon="6.37328">
        <ele>236.7</ele>
        <time>2019-01-11T13:43:41Z</time>
      </trkpt>
      <trkpt lat="43.51767" lon="6.37337">
        <ele>238.1</ele>
        <time>2019-01-11T13:44:42Z</time>
      </trkpt>
      <trkpt lat="43.51774" lon="6.37346">
        <ele>238.3</ele>
        <time>2019-01-11T13:44:54Z</time>
      </trkpt>
      <trkpt lat="43.51783" lon="6.37349">
        <ele>239.6</ele>
        <time>2019-01-11T13:45:10Z</time>
      </trkpt>
      <trkpt lat="43.51792" lon="6.37354">
        <ele>240.4</ele>
        <time>2019-01-11T13:45:20Z</time>
      </trkpt>
      <trkpt lat="43.518" lon="6.37361">
        <ele>240.8</ele>
        <time>2019-01-11T13:45:28Z</time>
      </trkpt>
      <trkpt lat="43.51809" lon="6.37362">
        <ele>241.3</ele>
        <time>2019-01-11T13:45:38Z</time>
      </trkpt>
      <trkpt lat="43.51816" lon="6.37371">
        <ele>242.4</ele>
        <time>2019-01-11T13:45:49Z</time>
      </trkpt>
      <trkpt lat="43.51823" lon="6.37378">
        <ele>243.3</ele>
        <time>2019-01-11T13:46:00Z</time>
      </trkpt>
      <trkpt lat="43.5183" lon="6.37387">
        <ele>243.8</ele>
        <time>2019-01-11T13:46:12Z</time>
      </trkpt>
      <trkpt lat="43.51839" lon="6.3739">
        <ele>244.6</ele>
        <time>2019-01-11T13:46:20Z</time>
      </trkpt>
      <trkpt lat="43.51848" lon="6.37394">
        <ele>245.8</ele>
        <time>2019-01-11T13:46:32Z</time>
      </trkpt>
      <trkpt lat="43.51857" lon="6.374">
        <ele>247</ele>
        <time>2019-01-11T13:46:44Z</time>
      </trkpt>
      <trkpt lat="43.51866" lon="6.37403">
        <ele>247.4</ele>
        <time>2019-01-11T13:46:52Z</time>
      </trkpt>
      <trkpt lat="43.51875" lon="6.37406">
        <ele>248.2</ele>
        <time>2019-01-11T13:47:01Z</time>
      </trkpt>
      <trkpt lat="43.51884" lon="6.37411">
        <ele>249</ele>
        <time>2019-01-11T13:47:12Z</time>
      </trkpt>
      <trkpt lat="43.51892" lon="6.37414">
        <ele>250.5</ele>
        <time>2019-01-11T13:47:22Z</time>
      </trkpt>
      <trkpt lat="43.51902" lon="6.37419">
        <ele>252.2</ele>
        <time>2019-01-11T13:47:33Z</time>
      </trkpt>
      <trkpt lat="43.51911" lon="6.37422">
        <ele>252.8</ele>
        <time>2019-01-11T13:47:44Z</time>
      </trkpt>
      <trkpt lat="43.5192" lon="6.37425">
        <ele>254.9</ele>
        <time>2019-01-11T13:47:55Z</time>
      </trkpt>
      <trkpt lat="43.5193" lon="6.37427">
        <ele>255.2</ele>
        <time>2019-01-11T13:48:04Z</time>
      </trkpt>
      <trkpt lat="43.51939" lon="6.3743">
        <ele>256.5</ele>
        <time>2019-01-11T13:48:14Z</time>
      </trkpt>
      <trkpt lat="43.51947" lon="6.37437">
        <ele>257.4</ele>
        <time>2019-01-11T13:48:25Z</time>
      </trkpt>
      <trkpt lat="43.51954" lon="6.37447">
        <ele>258.9</ele>
        <time>2019-01-11T13:48:37Z</time>
      </trkpt>
      <trkpt lat="43.51963" lon="6.37447">
        <ele>260.5</ele>
        <time>2019-01-11T13:48:50Z</time>
      </trkpt>
      <trkpt lat="43.51972" lon="6.37449">
        <ele>260.3</ele>
        <time>2019-01-11T13:50:52Z</time>
      </trkpt>
      <trkpt lat="43.51977" lon="6.37459">
        <ele>261.7</ele>
        <time>2019-01-11T13:51:04Z</time>
      </trkpt>
      <trkpt lat="43.51984" lon="6.37468">
        <ele>263.9</ele>
        <time>2019-01-11T13:51:18Z</time>
      </trkpt>
      <trkpt lat="43.51989" lon="6.37479">
        <ele>264.8</ele>
        <time>2019-01-11T13:51:29Z</time>
      </trkpt>
      <trkpt lat="43.51992" lon="6.37492">
        <ele>267.4</ele>
        <time>2019-01-11T13:51:48Z</time>
      </trkpt>
      <trkpt lat="43.51994" lon="6.37504">
        <ele>270.4</ele>
        <time>2019-01-11T13:52:08Z</time>
      </trkpt>
      <trkpt lat="43.51998" lon="6.37517">
        <ele>273</ele>
        <time>2019-01-11T13:52:27Z</time>
      </trkpt>
      <trkpt lat="43.52001" lon="6.37529">
        <ele>275.6</ele>
        <time>2019-01-11T13:52:44Z</time>
      </trkpt>
      <trkpt lat="43.52005" lon="6.3754">
        <ele>278</ele>
        <time>2019-01-11T13:53:04Z</time>
      </trkpt>
      <trkpt lat="43.52007" lon="6.37552">
        <ele>280.6</ele>
        <time>2019-01-11T13:53:19Z</time>
      </trkpt>
      <trkpt lat="43.52011" lon="6.37563">
        <ele>281.9</ele>
        <time>2019-01-11T13:53:31Z</time>
      </trkpt>
      <trkpt lat="43.52014" lon="6.37576">
        <ele>283.3</ele>
        <time>2019-01-11T13:53:43Z</time>
      </trkpt>
      <trkpt lat="43.52017" lon="6.37588">
        <ele>285.2</ele>
        <time>2019-01-11T13:53:57Z</time>
      </trkpt>
      <trkpt lat="43.5202" lon="6.37603">
        <ele>286.4</ele>
        <time>2019-01-11T13:54:10Z</time>
      </trkpt>
      <trkpt lat="43.52024" lon="6.37614">
        <ele>288.1</ele>
        <time>2019-01-11T13:54:22Z</time>
      </trkpt>
      <trkpt lat="43.52031" lon="6.37623">
        <ele>289.9</ele>
        <time>2019-01-11T13:54:38Z</time>
      </trkpt>
      <trkpt lat="43.52037" lon="6.37633">
        <ele>290.9</ele>
        <time>2019-01-11T13:54:51Z</time>
      </trkpt>
      <trkpt lat="43.52044" lon="6.37648">
        <ele>292.2</ele>
        <time>2019-01-11T13:55:04Z</time>
      </trkpt>
      <trkpt lat="43.52047" lon="6.3766">
        <ele>292.9</ele>
        <time>2019-01-11T13:55:14Z</time>
      </trkpt>
      <trkpt lat="43.52051" lon="6.37672">
        <ele>293.3</ele>
        <time>2019-01-11T13:55:26Z</time>
      </trkpt>
      <trkpt lat="43.52056" lon="6.37684">
        <ele>293.7</ele>
        <time>2019-01-11T13:55:37Z</time>
      </trkpt>
      <trkpt lat="43.52064" lon="6.37688">
        <ele>294</ele>
        <time>2019-01-11T13:57:12Z</time>
      </trkpt>
      <trkpt lat="43.52064" lon="6.37702">
        <ele>293.9</ele>
        <time>2019-01-11T13:58:12Z</time>
      </trkpt>
      <trkpt lat="43.52068" lon="6.37691">
        <ele>294</ele>
        <time>2019-01-11T13:59:02Z</time>
      </trkpt>
      <trkpt lat="43.52065" lon="6.37703">
        <ele>293.6</ele>
        <time>2019-01-11T14:00:26Z</time>
      </trkpt>
      <trkpt lat="43.52068" lon="6.37714">
        <ele>294</ele>
        <time>2019-01-11T14:00:49Z</time>
      </trkpt>
      <trkpt lat="43.52077" lon="6.3772">
        <ele>294.1</ele>
        <time>2019-01-11T14:01:00Z</time>
      </trkpt>
      <trkpt lat="43.52083" lon="6.37731">
        <ele>293</ele>
        <time>2019-01-11T14:01:16Z</time>
      </trkpt>
      <trkpt lat="43.52088" lon="6.37741">
        <ele>293.2</ele>
        <time>2019-01-11T14:01:26Z</time>
      </trkpt>
      <trkpt lat="43.52093" lon="6.37752">
        <ele>292.5</ele>
        <time>2019-01-11T14:01:37Z</time>
      </trkpt>
      <trkpt lat="43.52098" lon="6.37763">
        <ele>289.5</ele>
        <time>2019-01-11T14:01:53Z</time>
      </trkpt>
      <trkpt lat="43.52101" lon="6.37776">
        <ele>288.2</ele>
        <time>2019-01-11T14:02:12Z</time>
      </trkpt>
      <trkpt lat="43.52108" lon="6.37786">
        <ele>286.7</ele>
        <time>2019-01-11T14:02:26Z</time>
      </trkpt>
      <trkpt lat="43.52111" lon="6.37799">
        <ele>284.8</ele>
        <time>2019-01-11T14:02:42Z</time>
      </trkpt>
      <trkpt lat="43.52112" lon="6.37812">
        <ele>283.7</ele>
        <time>2019-01-11T14:02:55Z</time>
      </trkpt>
      <trkpt lat="43.52115" lon="6.37825">
        <ele>282.4</ele>
        <time>2019-01-11T14:03:08Z</time>
      </trkpt>
      <trkpt lat="43.5212" lon="6.37835">
        <ele>280</ele>
        <time>2019-01-11T14:03:23Z</time>
      </trkpt>
      <trkpt lat="43.52122" lon="6.37849">
        <ele>279.5</ele>
        <time>2019-01-11T14:03:36Z</time>
      </trkpt>
      <trkpt lat="43.52124" lon="6.37862">
        <ele>278.5</ele>
        <time>2019-01-11T14:03:45Z</time>
      </trkpt>
      <trkpt lat="43.52128" lon="6.37873">
        <ele>277.4</ele>
        <time>2019-01-11T14:03:54Z</time>
      </trkpt>
      <trkpt lat="43.52131" lon="6.37886">
        <ele>275.2</ele>
        <time>2019-01-11T14:04:06Z</time>
      </trkpt>
      <trkpt lat="43.52131" lon="6.37899">
        <ele>272.8</ele>
        <time>2019-01-11T14:04:23Z</time>
      </trkpt>
      <trkpt lat="43.52135" lon="6.37911">
        <ele>271.3</ele>
        <time>2019-01-11T14:04:39Z</time>
      </trkpt>
      <trkpt lat="43.52135" lon="6.37923">
        <ele>270.3</ele>
        <time>2019-01-11T14:04:48Z</time>
      </trkpt>
      <trkpt lat="43.52138" lon="6.37935">
        <ele>268.2</ele>
        <time>2019-01-11T14:05:02Z</time>
      </trkpt>
      <trkpt lat="43.52142" lon="6.37947">
        <ele>266.4</ele>
        <time>2019-01-11T14:05:16Z</time>
      </trkpt>
      <trkpt lat="43.52142" lon="6.37959">
        <ele>264.7</ele>
        <time>2019-01-11T14:05:30Z</time>
      </trkpt>
      <trkpt lat="43.52139" lon="6.37972">
        <ele>262.8</ele>
        <time>2019-01-11T14:05:46Z</time>
      </trkpt>
      <trkpt lat="43.52134" lon="6.37983">
        <ele>261.1</ele>
        <time>2019-01-11T14:05:59Z</time>
      </trkpt>
      <trkpt lat="43.52131" lon="6.37995">
        <ele>259.6</ele>
        <time>2019-01-11T14:06:11Z</time>
      </trkpt>
      <trkpt lat="43.52127" lon="6.38008">
        <ele>258</ele>
        <time>2019-01-11T14:06:23Z</time>
      </trkpt>
      <trkpt lat="43.52114" lon="6.38044">
        <ele>256</ele>
        <time>2019-01-11T14:06:50Z</time>
      </trkpt>
      <trkpt lat="43.52105" lon="6.3805">
        <ele>254.3</ele>
        <time>2019-01-11T14:06:58Z</time>
      </trkpt>
      <trkpt lat="43.52102" lon="6.38063">
        <ele>253.2</ele>
        <time>2019-01-11T14:07:08Z</time>
      </trkpt>
      <trkpt lat="43.52098" lon="6.38076">
        <ele>252.2</ele>
        <time>2019-01-11T14:07:18Z</time>
      </trkpt>
      <trkpt lat="43.52094" lon="6.38088">
        <ele>250.8</ele>
        <time>2019-01-11T14:07:27Z</time>
      </trkpt>
      <trkpt lat="43.52092" lon="6.38101">
        <ele>249.1</ele>
        <time>2019-01-11T14:07:38Z</time>
      </trkpt>
      <trkpt lat="43.52092" lon="6.38113">
        <ele>248.8</ele>
        <time>2019-01-11T14:07:57Z</time>
      </trkpt>
      <trkpt lat="43.52083" lon="6.3812">
        <ele>248.7</ele>
        <time>2019-01-11T14:10:41Z</time>
      </trkpt>
      <trkpt lat="43.52075" lon="6.38125">
        <ele>248.3</ele>
        <time>2019-01-11T14:10:54Z</time>
      </trkpt>
      <trkpt lat="43.52066" lon="6.38129">
        <ele>248.9</ele>
        <time>2019-01-11T14:11:04Z</time>
      </trkpt>
      <trkpt lat="43.52057" lon="6.38136">
        <ele>249.4</ele>
        <time>2019-01-11T14:11:15Z</time>
      </trkpt>
      <trkpt lat="43.52048" lon="6.38141">
        <ele>248.8</ele>
        <time>2019-01-11T14:11:25Z</time>
      </trkpt>
      <trkpt lat="43.52037" lon="6.38142">
        <ele>248.8</ele>
        <time>2019-01-11T14:11:33Z</time>
      </trkpt>
      <trkpt lat="43.52027" lon="6.38143">
        <ele>248.4</ele>
        <time>2019-01-11T14:11:40Z</time>
      </trkpt>
      <trkpt lat="43.52018" lon="6.38146">
        <ele>248.8</ele>
        <time>2019-01-11T14:11:48Z</time>
      </trkpt>
      <trkpt lat="43.52009" lon="6.38149">
        <ele>247.4</ele>
        <time>2019-01-11T14:11:58Z</time>
      </trkpt>
      <trkpt lat="43.52" lon="6.38149">
        <ele>247.8</ele>
        <time>2019-01-11T14:12:05Z</time>
      </trkpt>
      <trkpt lat="43.51991" lon="6.38155">
        <ele>247</ele>
        <time>2019-01-11T14:12:14Z</time>
      </trkpt>
      <trkpt lat="43.51983" lon="6.3816">
        <ele>246.9</ele>
        <time>2019-01-11T14:12:22Z</time>
      </trkpt>
      <trkpt lat="43.51974" lon="6.38164">
        <ele>245.8</ele>
        <time>2019-01-11T14:12:30Z</time>
      </trkpt>
      <trkpt lat="43.51965" lon="6.3817">
        <ele>245.7</ele>
        <time>2019-01-11T14:12:39Z</time>
      </trkpt>
      <trkpt lat="43.51957" lon="6.38177">
        <ele>246.4</ele>
        <time>2019-01-11T14:12:48Z</time>
      </trkpt>
      <trkpt lat="43.51948" lon="6.38183">
        <ele>246.7</ele>
        <time>2019-01-11T14:12:55Z</time>
      </trkpt>
      <trkpt lat="43.51942" lon="6.38192">
        <ele>246.3</ele>
        <time>2019-01-11T14:13:06Z</time>
      </trkpt>
      <trkpt lat="43.51937" lon="6.38202">
        <ele>246</ele>
        <time>2019-01-11T14:13:16Z</time>
      </trkpt>
      <trkpt lat="43.51931" lon="6.38212">
        <ele>245.5</ele>
        <time>2019-01-11T14:13:26Z</time>
      </trkpt>
      <trkpt lat="43.51922" lon="6.38221">
        <ele>245.7</ele>
        <time>2019-01-11T14:13:34Z</time>
      </trkpt>
      <trkpt lat="43.51917" lon="6.38233">
        <ele>245.3</ele>
        <time>2019-01-11T14:13:43Z</time>
      </trkpt>
      <trkpt lat="43.5191" lon="6.38242">
        <ele>244.6</ele>
        <time>2019-01-11T14:13:52Z</time>
      </trkpt>
      <trkpt lat="43.51902" lon="6.38248">
        <ele>245.8</ele>
        <time>2019-01-11T14:14:01Z</time>
      </trkpt>
      <trkpt lat="43.51894" lon="6.38256">
        <ele>246</ele>
        <time>2019-01-11T14:14:10Z</time>
      </trkpt>
      <trkpt lat="43.51887" lon="6.38264">
        <ele>246</ele>
        <time>2019-01-11T14:14:19Z</time>
      </trkpt>
      <trkpt lat="43.51881" lon="6.38275">
        <ele>245.8</ele>
        <time>2019-01-11T14:14:28Z</time>
      </trkpt>
      <trkpt lat="43.51874" lon="6.38283">
        <ele>245.2</ele>
        <time>2019-01-11T14:14:35Z</time>
      </trkpt>
      <trkpt lat="43.51867" lon="6.38292">
        <ele>244.7</ele>
        <time>2019-01-11T14:14:42Z</time>
      </trkpt>
      <trkpt lat="43.51863" lon="6.38303">
        <ele>244.5</ele>
        <time>2019-01-11T14:14:49Z</time>
      </trkpt>
      <trkpt lat="43.51858" lon="6.38314">
        <ele>244.2</ele>
        <time>2019-01-11T14:14:58Z</time>
      </trkpt>
      <trkpt lat="43.51849" lon="6.38317">
        <ele>243.9</ele>
        <time>2019-01-11T14:15:02Z</time>
      </trkpt>
      <trkpt lat="43.51841" lon="6.38321">
        <ele>243.8</ele>
        <time>2019-01-11T14:15:07Z</time>
      </trkpt>
      <trkpt lat="43.51834" lon="6.3833">
        <ele>243.1</ele>
        <time>2019-01-11T14:15:17Z</time>
      </trkpt>
      <trkpt lat="43.51831" lon="6.38342">
        <ele>242.5</ele>
        <time>2019-01-11T14:15:25Z</time>
      </trkpt>
      <trkpt lat="43.51824" lon="6.38354">
        <ele>241</ele>
        <time>2019-01-11T14:15:32Z</time>
      </trkpt>
      <trkpt lat="43.51822" lon="6.38367">
        <ele>241</ele>
        <time>2019-01-11T14:15:39Z</time>
      </trkpt>
      <trkpt lat="43.51818" lon="6.38382">
        <ele>240</ele>
        <time>2019-01-11T14:15:53Z</time>
      </trkpt>
      <trkpt lat="43.51802" lon="6.38387">
        <ele>240.5</ele>
        <time>2019-01-11T14:16:08Z</time>
      </trkpt>
      <trkpt lat="43.51793" lon="6.38392">
        <ele>240.1</ele>
        <time>2019-01-11T14:16:18Z</time>
      </trkpt>
      <trkpt lat="43.51784" lon="6.38395">
        <ele>240.2</ele>
        <time>2019-01-11T14:16:24Z</time>
      </trkpt>
      <trkpt lat="43.51778" lon="6.38404">
        <ele>240.4</ele>
        <time>2019-01-11T14:16:34Z</time>
      </trkpt>
      <trkpt lat="43.5177" lon="6.38412">
        <ele>239.9</ele>
        <time>2019-01-11T14:16:41Z</time>
      </trkpt>
      <trkpt lat="43.51762" lon="6.38417">
        <ele>240</ele>
        <time>2019-01-11T14:16:50Z</time>
      </trkpt>
      <trkpt lat="43.51753" lon="6.38422">
        <ele>239.9</ele>
        <time>2019-01-11T14:16:55Z</time>
      </trkpt>
      <trkpt lat="43.51744" lon="6.38423">
        <ele>239.3</ele>
        <time>2019-01-11T14:17:02Z</time>
      </trkpt>
      <trkpt lat="43.51734" lon="6.38424">
        <ele>238.4</ele>
        <time>2019-01-11T14:17:11Z</time>
      </trkpt>
      <trkpt lat="43.51725" lon="6.38426">
        <ele>238</ele>
        <time>2019-01-11T14:17:23Z</time>
      </trkpt>
      <trkpt lat="43.51715" lon="6.38424">
        <ele>237.3</ele>
        <time>2019-01-11T14:17:32Z</time>
      </trkpt>
      <trkpt lat="43.51706" lon="6.38423">
        <ele>236.7</ele>
        <time>2019-01-11T14:17:41Z</time>
      </trkpt>
      <trkpt lat="43.51699" lon="6.38432">
        <ele>235.6</ele>
        <time>2019-01-11T14:17:58Z</time>
      </trkpt>
      <trkpt lat="43.5169" lon="6.38433">
        <ele>235.3</ele>
        <time>2019-01-11T14:18:41Z</time>
      </trkpt>
      <trkpt lat="43.51681" lon="6.38432">
        <ele>234.8</ele>
        <time>2019-01-11T14:19:22Z</time>
      </trkpt>
      <trkpt lat="43.51681" lon="6.3842">
        <ele>235.2</ele>
        <time>2019-01-11T14:20:55Z</time>
      </trkpt>
      <trkpt lat="43.51672" lon="6.38417">
        <ele>236.2</ele>
        <time>2019-01-11T14:21:23Z</time>
      </trkpt>
      <trkpt lat="43.51663" lon="6.38411">
        <ele>236</ele>
        <time>2019-01-11T14:21:39Z</time>
      </trkpt>
      <trkpt lat="43.51654" lon="6.38405">
        <ele>236.1</ele>
        <time>2019-01-11T14:21:55Z</time>
      </trkpt>
      <trkpt lat="43.51645" lon="6.38401">
        <ele>237</ele>
        <time>2019-01-11T14:22:04Z</time>
      </trkpt>
      <trkpt lat="43.51636" lon="6.38397">
        <ele>237.2</ele>
        <time>2019-01-11T14:22:11Z</time>
      </trkpt>
      <trkpt lat="43.51627" lon="6.38393">
        <ele>236</ele>
        <time>2019-01-11T14:22:20Z</time>
      </trkpt>
      <trkpt lat="43.51615" lon="6.3839">
        <ele>235.8</ele>
        <time>2019-01-11T14:22:29Z</time>
      </trkpt>
      <trkpt lat="43.51606" lon="6.38386">
        <ele>235.2</ele>
        <time>2019-01-11T14:22:38Z</time>
      </trkpt>
      <trkpt lat="43.51598" lon="6.38381">
        <ele>234.7</ele>
        <time>2019-01-11T14:22:49Z</time>
      </trkpt>
      <trkpt lat="43.5159" lon="6.38373">
        <ele>234.4</ele>
        <time>2019-01-11T14:23:01Z</time>
      </trkpt>
      <trkpt lat="43.51583" lon="6.38364">
        <ele>233.6</ele>
        <time>2019-01-11T14:23:12Z</time>
      </trkpt>
      <trkpt lat="43.51577" lon="6.38355">
        <ele>232.7</ele>
        <time>2019-01-11T14:23:24Z</time>
      </trkpt>
      <trkpt lat="43.51574" lon="6.38343">
        <ele>233.6</ele>
        <time>2019-01-11T14:23:38Z</time>
      </trkpt>
      <trkpt lat="43.51573" lon="6.3833">
        <ele>233.9</ele>
        <time>2019-01-11T14:23:51Z</time>
      </trkpt>
      <trkpt lat="43.51572" lon="6.38317">
        <ele>233.7</ele>
        <time>2019-01-11T14:24:03Z</time>
      </trkpt>
      <trkpt lat="43.51574" lon="6.38304">
        <ele>233.2</ele>
        <time>2019-01-11T14:24:12Z</time>
      </trkpt>
      <trkpt lat="43.51576" lon="6.38292">
        <ele>233</ele>
        <time>2019-01-11T14:24:22Z</time>
      </trkpt>
      <trkpt lat="43.51576" lon="6.38279">
        <ele>232.8</ele>
        <time>2019-01-11T14:24:33Z</time>
      </trkpt>
      <trkpt lat="43.51574" lon="6.38266">
        <ele>232</ele>
        <time>2019-01-11T14:24:42Z</time>
      </trkpt>
      <trkpt lat="43.51574" lon="6.38253">
        <ele>231.4</ele>
        <time>2019-01-11T14:24:52Z</time>
      </trkpt>
      <trkpt lat="43.51574" lon="6.3824">
        <ele>231.4</ele>
        <time>2019-01-11T14:25:02Z</time>
      </trkpt>
      <trkpt lat="43.51574" lon="6.38227">
        <ele>231.6</ele>
        <time>2019-01-11T14:25:11Z</time>
      </trkpt>
      <trkpt lat="43.51575" lon="6.38215">
        <ele>231.6</ele>
        <time>2019-01-11T14:25:20Z</time>
      </trkpt>
      <trkpt lat="43.51575" lon="6.38202">
        <ele>231.7</ele>
        <time>2019-01-11T14:25:33Z</time>
      </trkpt>
      <trkpt lat="43.51576" lon="6.38188">
        <ele>232.1</ele>
        <time>2019-01-11T14:25:43Z</time>
      </trkpt>
      <trkpt lat="43.51574" lon="6.38175">
        <ele>232.3</ele>
        <time>2019-01-11T14:25:52Z</time>
      </trkpt>
      <trkpt lat="43.51576" lon="6.38162">
        <ele>232.9</ele>
        <time>2019-01-11T14:25:59Z</time>
      </trkpt>
      <trkpt lat="43.51577" lon="6.38148">
        <ele>233.8</ele>
        <time>2019-01-11T14:26:10Z</time>
      </trkpt>
      <trkpt lat="43.51578" lon="6.38134">
        <ele>233.9</ele>
        <time>2019-01-11T14:26:23Z</time>
      </trkpt>
      <trkpt lat="43.51578" lon="6.38122">
        <ele>233</ele>
        <time>2019-01-11T14:26:33Z</time>
      </trkpt>
      <trkpt lat="43.51577" lon="6.38109">
        <ele>232.6</ele>
        <time>2019-01-11T14:26:43Z</time>
      </trkpt>
      <trkpt lat="43.51577" lon="6.38097">
        <ele>232.2</ele>
        <time>2019-01-11T14:26:52Z</time>
      </trkpt>
      <trkpt lat="43.51576" lon="6.38082">
        <ele>231.9</ele>
        <time>2019-01-11T14:27:06Z</time>
      </trkpt>
      <trkpt lat="43.51574" lon="6.3807">
        <ele>231.4</ele>
        <time>2019-01-11T14:27:17Z</time>
      </trkpt>
      <trkpt lat="43.51574" lon="6.38056">
        <ele>231.3</ele>
        <time>2019-01-11T14:27:27Z</time>
      </trkpt>
      <trkpt lat="43.51573" lon="6.38042">
        <ele>231.3</ele>
        <time>2019-01-11T14:27:34Z</time>
      </trkpt>
      <trkpt lat="43.51573" lon="6.38028">
        <ele>230.7</ele>
        <time>2019-01-11T14:27:43Z</time>
      </trkpt>
      <trkpt lat="43.51571" lon="6.38015">
        <ele>230.7</ele>
        <time>2019-01-11T14:27:53Z</time>
      </trkpt>
      <trkpt lat="43.51569" lon="6.38002">
        <ele>231.2</ele>
        <time>2019-01-11T14:28:03Z</time>
      </trkpt>
      <trkpt lat="43.51564" lon="6.3799">
        <ele>231.4</ele>
        <time>2019-01-11T14:28:11Z</time>
      </trkpt>
      <trkpt lat="43.5156" lon="6.37979">
        <ele>230.8</ele>
        <time>2019-01-11T14:28:21Z</time>
      </trkpt>
      <trkpt lat="43.5156" lon="6.37966">
        <ele>230.5</ele>
        <time>2019-01-11T14:28:30Z</time>
      </trkpt>
      <trkpt lat="43.51561" lon="6.37954">
        <ele>230.8</ele>
        <time>2019-01-11T14:28:41Z</time>
      </trkpt>
      <trkpt lat="43.51562" lon="6.37942">
        <ele>231.1</ele>
        <time>2019-01-11T14:28:51Z</time>
      </trkpt>
      <trkpt lat="43.51564" lon="6.37929">
        <ele>230.6</ele>
        <time>2019-01-11T14:29:02Z</time>
      </trkpt>
      <trkpt lat="43.51567" lon="6.37916">
        <ele>230.7</ele>
        <time>2019-01-11T14:29:13Z</time>
      </trkpt>
      <trkpt lat="43.51571" lon="6.37904">
        <ele>230.1</ele>
        <time>2019-01-11T14:29:22Z</time>
      </trkpt>
      <trkpt lat="43.51572" lon="6.37892">
        <ele>229.4</ele>
        <time>2019-01-11T14:29:32Z</time>
      </trkpt>
      <trkpt lat="43.51568" lon="6.37879">
        <ele>227.8</ele>
        <time>2019-01-11T14:29:45Z</time>
      </trkpt>
      <trkpt lat="43.5156" lon="6.37874">
        <ele>226.5</ele>
        <time>2019-01-11T14:29:59Z</time>
      </trkpt>
      <trkpt lat="43.51551" lon="6.37879">
        <ele>225.3</ele>
        <time>2019-01-11T14:30:09Z</time>
      </trkpt>
      <trkpt lat="43.51543" lon="6.37885">
        <ele>224.6</ele>
        <time>2019-01-11T14:30:19Z</time>
      </trkpt>
      <trkpt lat="43.51535" lon="6.37892">
        <ele>223.7</ele>
        <time>2019-01-11T14:30:31Z</time>
      </trkpt>
      <trkpt lat="43.51527" lon="6.37902">
        <ele>223.1</ele>
        <time>2019-01-11T14:30:43Z</time>
      </trkpt>
      <trkpt lat="43.51517" lon="6.37905">
        <ele>221.6</ele>
        <time>2019-01-11T14:31:03Z</time>
      </trkpt>
      <trkpt lat="43.51508" lon="6.3791">
        <ele>220.6</ele>
        <time>2019-01-11T14:31:18Z</time>
      </trkpt>
      <trkpt lat="43.51499" lon="6.37906">
        <ele>218.8</ele>
        <time>2019-01-11T14:31:54Z</time>
      </trkpt>
      <trkpt lat="43.51493" lon="6.37896">
        <ele>219.1</ele>
        <time>2019-01-11T14:32:06Z</time>
      </trkpt>
      <trkpt lat="43.51486" lon="6.37889">
        <ele>218.9</ele>
        <time>2019-01-11T14:32:16Z</time>
      </trkpt>
      <trkpt lat="43.51479" lon="6.3788">
        <ele>218.8</ele>
        <time>2019-01-11T14:32:28Z</time>
      </trkpt>
      <trkpt lat="43.51471" lon="6.37873">
        <ele>218.9</ele>
        <time>2019-01-11T14:32:40Z</time>
      </trkpt>
      <trkpt lat="43.51465" lon="6.37863">
        <ele>219.5</ele>
        <time>2019-01-11T14:32:52Z</time>
      </trkpt>
      <trkpt lat="43.51457" lon="6.37856">
        <ele>219.8</ele>
        <time>2019-01-11T14:33:01Z</time>
      </trkpt>
      <trkpt lat="43.51449" lon="6.37853">
        <ele>219.7</ele>
        <time>2019-01-11T14:33:07Z</time>
      </trkpt>
      <trkpt lat="43.5144" lon="6.37845">
        <ele>219.8</ele>
        <time>2019-01-11T14:33:16Z</time>
      </trkpt>
      <trkpt lat="43.51431" lon="6.37841">
        <ele>219.7</ele>
        <time>2019-01-11T14:33:25Z</time>
      </trkpt>
      <trkpt lat="43.51424" lon="6.37834">
        <ele>220.1</ele>
        <time>2019-01-11T14:33:43Z</time>
      </trkpt>
      <trkpt lat="43.51416" lon="6.37828">
        <ele>220.2</ele>
        <time>2019-01-11T14:33:52Z</time>
      </trkpt>
      <trkpt lat="43.51406" lon="6.37825">
        <ele>220.6</ele>
        <time>2019-01-11T14:34:02Z</time>
      </trkpt>
      <trkpt lat="43.51397" lon="6.37821">
        <ele>220.7</ele>
        <time>2019-01-11T14:34:12Z</time>
      </trkpt>
      <trkpt lat="43.51386" lon="6.3782">
        <ele>221.1</ele>
        <time>2019-01-11T14:34:20Z</time>
      </trkpt>
      <trkpt lat="43.51377" lon="6.3782">
        <ele>221.4</ele>
        <time>2019-01-11T14:34:34Z</time>
      </trkpt>
      <trkpt lat="43.51368" lon="6.37823">
        <ele>221.9</ele>
        <time>2019-01-11T14:34:44Z</time>
      </trkpt>
      <trkpt lat="43.51358" lon="6.37826">
        <ele>221.9</ele>
        <time>2019-01-11T14:34:55Z</time>
      </trkpt>
      <trkpt lat="43.51349" lon="6.37829">
        <ele>222.3</ele>
        <time>2019-01-11T14:35:01Z</time>
      </trkpt>
      <trkpt lat="43.51339" lon="6.37834">
        <ele>222.5</ele>
        <time>2019-01-11T14:35:08Z</time>
      </trkpt>
      <trkpt lat="43.51331" lon="6.3784">
        <ele>222.7</ele>
        <time>2019-01-11T14:35:18Z</time>
      </trkpt>
      <trkpt lat="43.5132" lon="6.37842">
        <ele>223</ele>
        <time>2019-01-11T14:35:26Z</time>
      </trkpt>
      <trkpt lat="43.51311" lon="6.37844">
        <ele>223.2</ele>
        <time>2019-01-11T14:35:34Z</time>
      </trkpt>
      <trkpt lat="43.513" lon="6.37854">
        <ele>224.6</ele>
        <time>2019-01-11T14:35:59Z</time>
      </trkpt>
      <trkpt lat="43.51291" lon="6.37856">
        <ele>224.4</ele>
        <time>2019-01-11T14:36:03Z</time>
      </trkpt>
      <trkpt lat="43.51281" lon="6.37859">
        <ele>224.7</ele>
        <time>2019-01-11T14:36:10Z</time>
      </trkpt>
      <trkpt lat="43.5127" lon="6.37862">
        <ele>224.9</ele>
        <time>2019-01-11T14:36:18Z</time>
      </trkpt>
      <trkpt lat="43.5126" lon="6.37866">
        <ele>224.8</ele>
        <time>2019-01-11T14:36:25Z</time>
      </trkpt>
      <trkpt lat="43.51259" lon="6.37879">
        <ele>225</ele>
        <time>2019-01-11T14:36:40Z</time>
      </trkpt>
      <trkpt lat="43.51251" lon="6.37884">
        <ele>225.5</ele>
        <time>2019-01-11T14:36:47Z</time>
      </trkpt>
      <trkpt lat="43.5124" lon="6.37888">
        <ele>225.9</ele>
        <time>2019-01-11T14:36:53Z</time>
      </trkpt>
      <trkpt lat="43.51231" lon="6.37894">
        <ele>226</ele>
        <time>2019-01-11T14:36:59Z</time>
      </trkpt>
      <trkpt lat="43.51227" lon="6.37906">
        <ele>226.3</ele>
        <time>2019-01-11T14:37:10Z</time>
      </trkpt>
      <trkpt lat="43.51219" lon="6.37915">
        <ele>226.5</ele>
        <time>2019-01-11T14:37:18Z</time>
      </trkpt>
      <trkpt lat="43.51209" lon="6.37914">
        <ele>227.3</ele>
        <time>2019-01-11T14:37:46Z</time>
      </trkpt>
      <trkpt lat="43.51201" lon="6.37908">
        <ele>228.7</ele>
        <time>2019-01-11T14:38:02Z</time>
      </trkpt>
      <trkpt lat="43.51196" lon="6.37896">
        <ele>228.9</ele>
        <time>2019-01-11T14:38:21Z</time>
      </trkpt>
      <trkpt lat="43.51186" lon="6.37902">
        <ele>229.3</ele>
        <time>2019-01-11T14:38:40Z</time>
      </trkpt>
      <trkpt lat="43.51179" lon="6.3791">
        <ele>230.5</ele>
        <time>2019-01-11T14:38:55Z</time>
      </trkpt>
      <trkpt lat="43.51174" lon="6.37922">
        <ele>231.8</ele>
        <time>2019-01-11T14:39:12Z</time>
      </trkpt>
      <trkpt lat="43.51167" lon="6.37932">
        <ele>232.8</ele>
        <time>2019-01-11T14:39:27Z</time>
      </trkpt>
      <trkpt lat="43.5116" lon="6.37939">
        <ele>232.7</ele>
        <time>2019-01-11T14:39:36Z</time>
      </trkpt>
      <trkpt lat="43.51155" lon="6.37951">
        <ele>234.2</ele>
        <time>2019-01-11T14:39:50Z</time>
      </trkpt>
      <trkpt lat="43.51152" lon="6.37964">
        <ele>234.9</ele>
        <time>2019-01-11T14:40:09Z</time>
      </trkpt>
      <trkpt lat="43.51147" lon="6.37975">
        <ele>235.9</ele>
        <time>2019-01-11T14:40:27Z</time>
      </trkpt>
      <trkpt lat="43.51139" lon="6.37981">
        <ele>236.7</ele>
        <time>2019-01-11T14:40:40Z</time>
      </trkpt>
      <trkpt lat="43.51134" lon="6.37993">
        <ele>238.1</ele>
        <time>2019-01-11T14:41:02Z</time>
      </trkpt>
      <trkpt lat="43.51125" lon="6.37998">
        <ele>240</ele>
        <time>2019-01-11T14:41:18Z</time>
      </trkpt>
      <trkpt lat="43.51116" lon="6.38001">
        <ele>240.8</ele>
        <time>2019-01-11T14:41:31Z</time>
      </trkpt>
      <trkpt lat="43.51105" lon="6.38001">
        <ele>241.5</ele>
        <time>2019-01-11T14:41:45Z</time>
      </trkpt>
      <trkpt lat="43.51095" lon="6.38002">
        <ele>242.7</ele>
        <time>2019-01-11T14:41:59Z</time>
      </trkpt>
      <trkpt lat="43.51086" lon="6.38001">
        <ele>244.2</ele>
        <time>2019-01-11T14:42:13Z</time>
      </trkpt>
      <trkpt lat="43.51077" lon="6.38001">
        <ele>245.2</ele>
        <time>2019-01-11T14:42:28Z</time>
      </trkpt>
      <trkpt lat="43.51068" lon="6.38">
        <ele>245.7</ele>
        <time>2019-01-11T14:42:41Z</time>
      </trkpt>
      <trkpt lat="43.51059" lon="6.38">
        <ele>246.1</ele>
        <time>2019-01-11T14:42:50Z</time>
      </trkpt>
      <trkpt lat="43.51051" lon="6.37992">
        <ele>247.6</ele>
        <time>2019-01-11T14:43:12Z</time>
      </trkpt>
      <trkpt lat="43.51042" lon="6.3799">
        <ele>247.8</ele>
        <time>2019-01-11T14:43:24Z</time>
      </trkpt>
      <trkpt lat="43.51033" lon="6.37985">
        <ele>248.6</ele>
        <time>2019-01-11T14:43:38Z</time>
      </trkpt>
      <trkpt lat="43.51023" lon="6.37984">
        <ele>249.1</ele>
        <time>2019-01-11T14:43:50Z</time>
      </trkpt>
      <trkpt lat="43.51014" lon="6.37983">
        <ele>249.2</ele>
        <time>2019-01-11T14:43:59Z</time>
      </trkpt>
      <trkpt lat="43.51005" lon="6.37986">
        <ele>249.8</ele>
        <time>2019-01-11T14:44:11Z</time>
      </trkpt>
      <trkpt lat="43.50995" lon="6.37987">
        <ele>250.4</ele>
        <time>2019-01-11T14:44:34Z</time>
      </trkpt>
      <trkpt lat="43.50989" lon="6.37978">
        <ele>250.9</ele>
        <time>2019-01-11T14:44:52Z</time>
      </trkpt>
      <trkpt lat="43.50982" lon="6.37969">
        <ele>251.1</ele>
        <time>2019-01-11T14:45:18Z</time>
      </trkpt>
      <trkpt lat="43.50973" lon="6.37971">
        <ele>250.6</ele>
        <time>2019-01-11T14:46:02Z</time>
      </trkpt>
      <trkpt lat="43.50965" lon="6.37976">
        <ele>251.1</ele>
        <time>2019-01-11T14:47:38Z</time>
      </trkpt>
      <trkpt lat="43.50955" lon="6.37979">
        <ele>249.5</ele>
        <time>2019-01-11T14:47:58Z</time>
      </trkpt>
      <trkpt lat="43.50946" lon="6.37984">
        <ele>248.1</ele>
        <time>2019-01-11T14:48:18Z</time>
      </trkpt>
      <trkpt lat="43.50936" lon="6.37988">
        <ele>247.6</ele>
        <time>2019-01-11T14:48:25Z</time>
      </trkpt>
      <trkpt lat="43.50926" lon="6.37987">
        <ele>247.2</ele>
        <time>2019-01-11T14:48:30Z</time>
      </trkpt>
      <trkpt lat="43.50917" lon="6.37986">
        <ele>246.5</ele>
        <time>2019-01-11T14:48:39Z</time>
      </trkpt>
      <trkpt lat="43.50908" lon="6.37988">
        <ele>246.1</ele>
        <time>2019-01-11T14:48:47Z</time>
      </trkpt>
      <trkpt lat="43.50898" lon="6.37993">
        <ele>245.8</ele>
        <time>2019-01-11T14:48:54Z</time>
      </trkpt>
      <trkpt lat="43.50889" lon="6.37998">
        <ele>245</ele>
        <time>2019-01-11T14:49:02Z</time>
      </trkpt>
      <trkpt lat="43.50879" lon="6.37997">
        <ele>244.7</ele>
        <time>2019-01-11T14:49:11Z</time>
      </trkpt>
      <trkpt lat="43.50871" lon="6.37993">
        <ele>244.5</ele>
        <time>2019-01-11T14:49:19Z</time>
      </trkpt>
      <trkpt lat="43.50862" lon="6.3799">
        <ele>243.7</ele>
        <time>2019-01-11T14:49:29Z</time>
      </trkpt>
      <trkpt lat="43.50853" lon="6.37985">
        <ele>243.1</ele>
        <time>2019-01-11T14:49:39Z</time>
      </trkpt>
      <trkpt lat="43.50844" lon="6.37981">
        <ele>241.8</ele>
        <time>2019-01-11T14:49:50Z</time>
      </trkpt>
      <trkpt lat="43.50836" lon="6.37985">
        <ele>240.9</ele>
        <time>2019-01-11T14:50:06Z</time>
      </trkpt>
      <trkpt lat="43.50827" lon="6.37983">
        <ele>240.5</ele>
        <time>2019-01-11T14:50:25Z</time>
      </trkpt>
      <trkpt lat="43.5082" lon="6.37974">
        <ele>240.5</ele>
        <time>2019-01-11T14:50:37Z</time>
      </trkpt>
      <trkpt lat="43.5081" lon="6.37969">
        <ele>241.9</ele>
        <time>2019-01-11T14:51:01Z</time>
      </trkpt>
      <trkpt lat="43.50801" lon="6.37968">
        <ele>241.8</ele>
        <time>2019-01-11T14:51:08Z</time>
      </trkpt>
      <trkpt lat="43.50791" lon="6.37967">
        <ele>242.8</ele>
        <time>2019-01-11T14:51:17Z</time>
      </trkpt>
      <trkpt lat="43.5078" lon="6.37968">
        <ele>243.2</ele>
        <time>2019-01-11T14:51:25Z</time>
      </trkpt>
      <trkpt lat="43.5077" lon="6.37969">
        <ele>243.3</ele>
        <time>2019-01-11T14:51:32Z</time>
      </trkpt>
      <trkpt lat="43.5076" lon="6.37973">
        <ele>243.9</ele>
        <time>2019-01-11T14:51:49Z</time>
      </trkpt>
      <trkpt lat="43.50751" lon="6.37977">
        <ele>244.1</ele>
        <time>2019-01-11T14:51:58Z</time>
      </trkpt>
      <trkpt lat="43.50742" lon="6.37982">
        <ele>243.4</ele>
        <time>2019-01-11T14:52:25Z</time>
      </trkpt>
      <trkpt lat="43.50734" lon="6.37979">
        <ele>243.2</ele>
        <time>2019-01-11T14:53:12Z</time>
      </trkpt>
      <trkpt lat="43.50725" lon="6.3798">
        <ele>246</ele>
        <time>2019-01-11T14:53:45Z</time>
      </trkpt>
      <trkpt lat="43.50715" lon="6.37984">
        <ele>246.7</ele>
        <time>2019-01-11T14:53:54Z</time>
      </trkpt>
      <trkpt lat="43.50709" lon="6.37993">
        <ele>248.1</ele>
        <time>2019-01-11T14:54:18Z</time>
      </trkpt>
      <trkpt lat="43.507" lon="6.37998">
        <ele>248.8</ele>
        <time>2019-01-11T14:54:27Z</time>
      </trkpt>
      <trkpt lat="43.50691" lon="6.38001">
        <ele>249.4</ele>
        <time>2019-01-11T14:54:40Z</time>
      </trkpt>
      <trkpt lat="43.5068" lon="6.38004">
        <ele>250</ele>
        <time>2019-01-11T14:54:45Z</time>
      </trkpt>
      <trkpt lat="43.50671" lon="6.38006">
        <ele>250.3</ele>
        <time>2019-01-11T14:54:53Z</time>
      </trkpt>
      <trkpt lat="43.50663" lon="6.38014">
        <ele>251.8</ele>
        <time>2019-01-11T14:55:15Z</time>
      </trkpt>
      <trkpt lat="43.50655" lon="6.38018">
        <ele>253.4</ele>
        <time>2019-01-11T14:55:31Z</time>
      </trkpt>
      <trkpt lat="43.50646" lon="6.38021">
        <ele>254.3</ele>
        <time>2019-01-11T14:55:39Z</time>
      </trkpt>
      <trkpt lat="43.50635" lon="6.38024">
        <ele>255.1</ele>
        <time>2019-01-11T14:55:55Z</time>
      </trkpt>
      <trkpt lat="43.50627" lon="6.38027">
        <ele>255.8</ele>
        <time>2019-01-11T14:56:05Z</time>
      </trkpt>
      <trkpt lat="43.50617" lon="6.38033">
        <ele>257.7</ele>
        <time>2019-01-11T14:56:22Z</time>
      </trkpt>
      <trkpt lat="43.50608" lon="6.38036">
        <ele>259.1</ele>
        <time>2019-01-11T14:56:34Z</time>
      </trkpt>
      <trkpt lat="43.50598" lon="6.38037">
        <ele>260</ele>
        <time>2019-01-11T14:56:46Z</time>
      </trkpt>
      <trkpt lat="43.50589" lon="6.38042">
        <ele>261</ele>
        <time>2019-01-11T14:56:58Z</time>
      </trkpt>
      <trkpt lat="43.5058" lon="6.38044">
        <ele>262.3</ele>
        <time>2019-01-11T14:57:11Z</time>
      </trkpt>
      <trkpt lat="43.50572" lon="6.38047">
        <ele>263.9</ele>
        <time>2019-01-11T14:57:26Z</time>
      </trkpt>
      <trkpt lat="43.50561" lon="6.3805">
        <ele>265.4</ele>
        <time>2019-01-11T14:57:39Z</time>
      </trkpt>
      <trkpt lat="43.50552" lon="6.38051">
        <ele>266.3</ele>
        <time>2019-01-11T14:57:47Z</time>
      </trkpt>
      <trkpt lat="43.50544" lon="6.38055">
        <ele>267.4</ele>
        <time>2019-01-11T14:57:57Z</time>
      </trkpt>
      <trkpt lat="43.50535" lon="6.38059">
        <ele>269.5</ele>
        <time>2019-01-11T14:58:19Z</time>
      </trkpt>
      <trkpt lat="43.50526" lon="6.38063">
        <ele>270.7</ele>
        <time>2019-01-11T14:58:34Z</time>
      </trkpt>
      <trkpt lat="43.50517" lon="6.38063">
        <ele>271.7</ele>
        <time>2019-01-11T14:58:52Z</time>
      </trkpt>
      <trkpt lat="43.50507" lon="6.38062">
        <ele>272.4</ele>
        <time>2019-01-11T14:59:41Z</time>
      </trkpt>
      <trkpt lat="43.50505" lon="6.38075">
        <ele>272.4</ele>
        <time>2019-01-11T14:59:48Z</time>
      </trkpt>
      <trkpt lat="43.50498" lon="6.38067">
        <ele>273</ele>
        <time>2019-01-11T15:00:23Z</time>
      </trkpt>
      <trkpt lat="43.50496" lon="6.38055">
        <ele>275.3</ele>
        <time>2019-01-11T15:00:51Z</time>
      </trkpt>
      <trkpt lat="43.50487" lon="6.38051">
        <ele>276.3</ele>
        <time>2019-01-11T15:01:02Z</time>
      </trkpt>
      <trkpt lat="43.50478" lon="6.38046">
        <ele>277.1</ele>
        <time>2019-01-11T15:01:12Z</time>
      </trkpt>
      <trkpt lat="43.50471" lon="6.38037">
        <ele>278.9</ele>
        <time>2019-01-11T15:01:26Z</time>
      </trkpt>
      <trkpt lat="43.50462" lon="6.38032">
        <ele>279.9</ele>
        <time>2019-01-11T15:01:40Z</time>
      </trkpt>
      <trkpt lat="43.50452" lon="6.38026">
        <ele>281.4</ele>
        <time>2019-01-11T15:01:57Z</time>
      </trkpt>
      <trkpt lat="43.50444" lon="6.38017">
        <ele>282.6</ele>
        <time>2019-01-11T15:02:10Z</time>
      </trkpt>
      <trkpt lat="43.50437" lon="6.3801">
        <ele>283.3</ele>
        <time>2019-01-11T15:02:20Z</time>
      </trkpt>
      <trkpt lat="43.5043" lon="6.38002">
        <ele>283.9</ele>
        <time>2019-01-11T15:02:29Z</time>
      </trkpt>
      <trkpt lat="43.50425" lon="6.37991">
        <ele>285.1</ele>
        <time>2019-01-11T15:02:47Z</time>
      </trkpt>
      <trkpt lat="43.50421" lon="6.37978">
        <ele>287.3</ele>
        <time>2019-01-11T15:03:08Z</time>
      </trkpt>
      <trkpt lat="43.50417" lon="6.37967">
        <ele>288.1</ele>
        <time>2019-01-11T15:03:21Z</time>
      </trkpt>
      <trkpt lat="43.50416" lon="6.37954">
        <ele>290</ele>
        <time>2019-01-11T15:03:34Z</time>
      </trkpt>
      <trkpt lat="43.50415" lon="6.37941">
        <ele>290.8</ele>
        <time>2019-01-11T15:03:48Z</time>
      </trkpt>
      <trkpt lat="43.50415" lon="6.37928">
        <ele>291.2</ele>
        <time>2019-01-11T15:04:00Z</time>
      </trkpt>
      <trkpt lat="43.50412" lon="6.37916">
        <ele>292</ele>
        <time>2019-01-11T15:04:13Z</time>
      </trkpt>
      <trkpt lat="43.50411" lon="6.37903">
        <ele>292.3</ele>
        <time>2019-01-11T15:04:28Z</time>
      </trkpt>
      <trkpt lat="43.50409" lon="6.37891">
        <ele>293.2</ele>
        <time>2019-01-11T15:04:39Z</time>
      </trkpt>
      <trkpt lat="43.50409" lon="6.37878">
        <ele>293.2</ele>
        <time>2019-01-11T15:04:54Z</time>
      </trkpt>
      <trkpt lat="43.5041" lon="6.37865">
        <ele>293.5</ele>
        <time>2019-01-11T15:05:07Z</time>
      </trkpt>
      <trkpt lat="43.5041" lon="6.3785">
        <ele>293.5</ele>
        <time>2019-01-11T15:05:14Z</time>
      </trkpt>
      <trkpt lat="43.5041" lon="6.37836">
        <ele>293.4</ele>
        <time>2019-01-11T15:05:22Z</time>
      </trkpt>
      <trkpt lat="43.50413" lon="6.37823">
        <ele>293.9</ele>
        <time>2019-01-11T15:05:31Z</time>
      </trkpt>
      <trkpt lat="43.50419" lon="6.37815">
        <ele>294.7</ele>
        <time>2019-01-11T15:05:44Z</time>
      </trkpt>
      <trkpt lat="43.50424" lon="6.37804">
        <ele>295.5</ele>
        <time>2019-01-11T15:05:51Z</time>
      </trkpt>
      <trkpt lat="43.50426" lon="6.37791">
        <ele>295.8</ele>
        <time>2019-01-11T15:05:57Z</time>
      </trkpt>
      <trkpt lat="43.50423" lon="6.37778">
        <ele>296.3</ele>
        <time>2019-01-11T15:06:07Z</time>
      </trkpt>
      <trkpt lat="43.50417" lon="6.37769">
        <ele>296.5</ele>
        <time>2019-01-11T15:06:16Z</time>
      </trkpt>
      <trkpt lat="43.50412" lon="6.37758">
        <ele>296</ele>
        <time>2019-01-11T15:06:26Z</time>
      </trkpt>
      <trkpt lat="43.50407" lon="6.37747">
        <ele>295.5</ele>
        <time>2019-01-11T15:06:40Z</time>
      </trkpt>
      <trkpt lat="43.50401" lon="6.37737">
        <ele>296.1</ele>
        <time>2019-01-11T15:06:51Z</time>
      </trkpt>
      <trkpt lat="43.50393" lon="6.3773">
        <ele>296.3</ele>
        <time>2019-01-11T15:07:03Z</time>
      </trkpt>
      <trkpt lat="43.50383" lon="6.37723">
        <ele>295.4</ele>
        <time>2019-01-11T15:07:11Z</time>
      </trkpt>
      <trkpt lat="43.50375" lon="6.37715">
        <ele>296.9</ele>
        <time>2019-01-11T15:07:19Z</time>
      </trkpt>
      <trkpt lat="43.50367" lon="6.37706">
        <ele>294.7</ele>
        <time>2019-01-11T15:07:27Z</time>
      </trkpt>
      <trkpt lat="43.5036" lon="6.37698">
        <ele>299.5</ele>
        <time>2019-01-11T15:07:38Z</time>
      </trkpt>
      <trkpt lat="43.50352" lon="6.3769">
        <ele>298.3</ele>
        <time>2019-01-11T15:07:55Z</time>
      </trkpt>
      <trkpt lat="43.50346" lon="6.37681">
        <ele>296.9</ele>
        <time>2019-01-11T15:08:24Z</time>
      </trkpt>
      <trkpt lat="43.50339" lon="6.37672">
        <ele>299.3</ele>
        <time>2019-01-11T15:08:36Z</time>
      </trkpt>
      <trkpt lat="43.50331" lon="6.37664">
        <ele>298.7</ele>
        <time>2019-01-11T15:08:46Z</time>
      </trkpt>
      <trkpt lat="43.50324" lon="6.37657">
        <ele>298.2</ele>
        <time>2019-01-11T15:08:57Z</time>
      </trkpt>
      <trkpt lat="43.50319" lon="6.37647">
        <ele>296.6</ele>
        <time>2019-01-11T15:09:14Z</time>
      </trkpt>
      <trkpt lat="43.50312" lon="6.37637">
        <ele>296</ele>
        <time>2019-01-11T15:09:30Z</time>
      </trkpt>
      <trkpt lat="43.50303" lon="6.37634">
        <ele>294.1</ele>
        <time>2019-01-11T15:09:45Z</time>
      </trkpt>
      <trkpt lat="43.50295" lon="6.37628">
        <ele>292.7</ele>
        <time>2019-01-11T15:09:54Z</time>
      </trkpt>
      <trkpt lat="43.50288" lon="6.3762">
        <ele>291.5</ele>
        <time>2019-01-11T15:10:08Z</time>
      </trkpt>
      <trkpt lat="43.5028" lon="6.37613">
        <ele>289.4</ele>
        <time>2019-01-11T15:10:22Z</time>
      </trkpt>
      <trkpt lat="43.50274" lon="6.37603">
        <ele>289.3</ele>
        <time>2019-01-11T15:10:40Z</time>
      </trkpt>
      <trkpt lat="43.50267" lon="6.37595">
        <ele>287.2</ele>
        <time>2019-01-11T15:10:57Z</time>
      </trkpt>
      <trkpt lat="43.50259" lon="6.37587">
        <ele>284.6</ele>
        <time>2019-01-11T15:11:17Z</time>
      </trkpt>
      <trkpt lat="43.50252" lon="6.37579">
        <ele>283.5</ele>
        <time>2019-01-11T15:11:34Z</time>
      </trkpt>
      <trkpt lat="43.50244" lon="6.37569">
        <ele>282.1</ele>
        <time>2019-01-11T15:12:00Z</time>
      </trkpt>
      <trkpt lat="43.50235" lon="6.37566">
        <ele>280</ele>
        <time>2019-01-11T15:12:08Z</time>
      </trkpt>
      <trkpt lat="43.50226" lon="6.37563">
        <ele>279</ele>
        <time>2019-01-11T15:12:18Z</time>
      </trkpt>
      <trkpt lat="43.50218" lon="6.37558">
        <ele>278.5</ele>
        <time>2019-01-11T15:12:29Z</time>
      </trkpt>
      <trkpt lat="43.5021" lon="6.37552">
        <ele>278.1</ele>
        <time>2019-01-11T15:12:31Z</time>
      </trkpt>
      <trkpt lat="43.50201" lon="6.37547">
        <ele>280.9</ele>
        <time>2019-01-11T15:12:35Z</time>
      </trkpt>
      <trkpt lat="43.50193" lon="6.37539">
        <ele>276.4</ele>
        <time>2019-01-11T15:12:45Z</time>
      </trkpt>
      <trkpt lat="43.50184" lon="6.37533">
        <ele>277</ele>
        <time>2019-01-11T15:12:55Z</time>
      </trkpt>
      <trkpt lat="43.50175" lon="6.37529">
        <ele>277.8</ele>
        <time>2019-01-11T15:13:03Z</time>
      </trkpt>
      <trkpt lat="43.50168" lon="6.37521">
        <ele>280</ele>
        <time>2019-01-11T15:13:10Z</time>
      </trkpt>
      <trkpt lat="43.5016" lon="6.37513">
        <ele>277</ele>
        <time>2019-01-11T15:13:20Z</time>
      </trkpt>
      <trkpt lat="43.50152" lon="6.37506">
        <ele>276.7</ele>
        <time>2019-01-11T15:13:28Z</time>
      </trkpt>
      <trkpt lat="43.50144" lon="6.37501">
        <ele>276.1</ele>
        <time>2019-01-11T15:13:36Z</time>
      </trkpt>
      <trkpt lat="43.50137" lon="6.37492">
        <ele>278</ele>
        <time>2019-01-11T15:13:45Z</time>
      </trkpt>
      <trkpt lat="43.50129" lon="6.37484">
        <ele>281.6</ele>
        <time>2019-01-11T15:13:54Z</time>
      </trkpt>
      <trkpt lat="43.50124" lon="6.37472">
        <ele>280.9</ele>
        <time>2019-01-11T15:14:04Z</time>
      </trkpt>
      <trkpt lat="43.50118" lon="6.37462">
        <ele>280.5</ele>
        <time>2019-01-11T15:14:13Z</time>
      </trkpt>
      <trkpt lat="43.50119" lon="6.37449">
        <ele>281.6</ele>
        <time>2019-01-11T15:14:20Z</time>
      </trkpt>
      <trkpt lat="43.5012" lon="6.37435">
        <ele>282.1</ele>
        <time>2019-01-11T15:14:31Z</time>
      </trkpt>
      <trkpt lat="43.50118" lon="6.37422">
        <ele>284.4</ele>
        <time>2019-01-11T15:14:41Z</time>
      </trkpt>
      <trkpt lat="43.50122" lon="6.37411">
        <ele>285.8</ele>
        <time>2019-01-11T15:15:02Z</time>
      </trkpt>
      <trkpt lat="43.50126" lon="6.37399">
        <ele>285.1</ele>
        <time>2019-01-11T15:15:26Z</time>
      </trkpt>
      <trkpt lat="43.50124" lon="6.37387">
        <ele>284.7</ele>
        <time>2019-01-11T15:16:07Z</time>
      </trkpt>
      <trkpt lat="43.50127" lon="6.37374">
        <ele>282</ele>
        <time>2019-01-11T15:16:17Z</time>
      </trkpt>
      <trkpt lat="43.50128" lon="6.37362">
        <ele>284</ele>
        <time>2019-01-11T15:16:35Z</time>
      </trkpt>
      <trkpt lat="43.50132" lon="6.3735">
        <ele>284.3</ele>
        <time>2019-01-11T15:16:55Z</time>
      </trkpt>
      <trkpt lat="43.50132" lon="6.37338">
        <ele>281.9</ele>
        <time>2019-01-11T15:17:04Z</time>
      </trkpt>
      <trkpt lat="43.50127" lon="6.37328">
        <ele>284.3</ele>
        <time>2019-01-11T15:17:21Z</time>
      </trkpt>
      <trkpt lat="43.50119" lon="6.37321">
        <ele>281.4</ele>
        <time>2019-01-11T15:17:35Z</time>
      </trkpt>
      <trkpt lat="43.5011" lon="6.37327">
        <ele>281.9</ele>
        <time>2019-01-11T15:18:03Z</time>
      </trkpt>
      <trkpt lat="43.50106" lon="6.37339">
        <ele>283</ele>
        <time>2019-01-11T15:18:16Z</time>
      </trkpt>
      <trkpt lat="43.501" lon="6.3735">
        <ele>283.9</ele>
        <time>2019-01-11T15:18:26Z</time>
      </trkpt>
      <trkpt lat="43.50096" lon="6.37361">
        <ele>284.5</ele>
        <time>2019-01-11T15:18:35Z</time>
      </trkpt>
      <trkpt lat="43.50088" lon="6.37368">
        <ele>286</ele>
        <time>2019-01-11T15:18:46Z</time>
      </trkpt>
      <trkpt lat="43.50085" lon="6.37364">
        <ele>287.4</ele>
        <time>2019-01-11T15:19:19Z</time>
      </trkpt>
    </trkseg>
  </trk>
</gpx>